Time,TemperatureF,DewpointF,PressureIn,WindDirection,WindDirectionDegrees,WindSpeedMPH,WindSpeedGustMPH,Humidity,HourlyPrecipIn,Conditions,Clouds,dailyrainin,SoftwareType,DateUTC
2013-01-23 00:03:00,2.8,-1.2,30.25,West,272,0.0,0.0,83,0.00,CLR,,0.00,WeatherDisplay:10.37,2013-01-23 06:03:00,
2013-01-23 00:04:00,2.8,-1.2,30.25,West,272,0.0,0.0,83,0.00,CLR,,0.00,WeatherDisplay:10.37,2013-01-23 06:04:00,
2013-01-23 00:08:00,3.0,-1.0,30.25,West,272,0.0,0.0,83,0.00,CLR,,0.00,WeatherDisplay:10.37,2013-01-23 06:08:00,
2013-01-23 00:09:00,3.1,-0.9,30.25,West,272,0.0,0.0,83,0.00,CLR,,0.00,WeatherDisplay:10.37,2013-01-23 06:09:00,
2013-01-23 00:10:00,3.0,-1.0,30.25,West,272,0.0,0.0,83,0.00,CLR,,0.00,WeatherDisplay:10.37,2013-01-23 06:10:00,
2013-01-23 00:13:00,3.2,-0.8,30.24,West,272,0.0,0.0,83,0.00,CLR,,0.00,WeatherDisplay:10.37,2013-01-23 06:13:00,
2013-01-23 00:14:00,3.1,-0.9,30.24,West,272,0.0,0.0,83,0.00,CLR,,0.00,WeatherDisplay:10.37,2013-01-23 06:14:00,
2013-01-23 00:15:00,3.4,-0.6,30.24,West,272,0.0,0.0,83,0.00,CLR,,0.00,WeatherDisplay:10.37,2013-01-23 06:15:00,
2013-01-23 00:18:00,3.4,-0.6,30.24,WSW,243,0.6,2.3,83,0.00,CLR,,0.00,WeatherDisplay:10.37,2013-01-23 06:18:00,
2013-01-23 00:19:00,3.4,-0.6,30.24,WSW,243,0.3,2.3,83,0.00,CLR,,0.00,WeatherDisplay:10.37,2013-01-23 06:19:00,
2013-01-23 00:20:00,3.3,-0.7,30.24,WSW,243,0.0,0.0,83,0.00,CLR,,0.00,WeatherDisplay:10.37,2013-01-23 06:20:00,
2013-01-23 00:24:00,3.5,-0.5,30.24,WSW,243,0.0,0.0,83,0.00,CLR,,0.00,WeatherDisplay:10.37,2013-01-23 06:24:00,
2013-01-23 00:25:00,3.6,-0.4,30.23,WSW,243,0.0,0.0,83,0.00,CLR,,0.00,WeatherDisplay:10.37,2013-01-23 06:25:00,
2013-01-23 00:29:00,3.6,-0.7,30.23,WSW,251,0.0,0.0,82,0.00,CLR,,0.00,WeatherDisplay:10.37,2013-01-23 06:29:00,
2013-01-23 00:30:00,3.7,-0.6,30.23,West,270,1.5,3.5,82,0.00,CLR,,0.00,WeatherDisplay:10.37,2013-01-23 06:30:00,
2013-01-23 00:34:00,3.8,-0.5,30.23,WSW,237,0.3,5.5,82,0.00,CLR,,0.00,WeatherDisplay:10.37,2013-01-23 06:34:00,
2013-01-23 00:35:00,3.8,-0.5,30.23,WSW,258,1.7,5.8,82,0.00,CLR,,0.00,WeatherDisplay:10.37,2013-01-23 06:35:00,
2013-01-23 00:39:00,3.8,-0.5,30.23,SSW,206,0.0,0.0,82,0.00,CLR,,0.00,WeatherDisplay:10.37,2013-01-23 06:39:00,
2013-01-23 00:40:00,3.9,-0.4,30.23,West,265,2.1,4.6,82,0.00,CLR,,0.00,WeatherDisplay:10.37,2013-01-23 06:40:00,
2013-01-23 00:44:00,4.0,-0.3,30.23,WSW,250,2.1,4.6,82,0.00,CLR,,0.00,WeatherDisplay:10.37,2013-01-23 06:44:00,
2013-01-23 00:45:00,4.1,-0.2,30.23,WSW,250,0.0,3.5,82,0.00,CLR,,0.00,WeatherDisplay:10.37,2013-01-23 06:45:00,
2013-01-23 00:46:00,4.0,-0.3,30.23,WSW,243,1.3,4.7,82,0.00,CLR,,0.00,WeatherDisplay:10.37,2013-01-23 06:46:00,
2013-01-23 00:49:00,4.0,-0.3,30.23,West,268,0.0,4.6,82,0.00,CLR,,0.00,WeatherDisplay:10.37,2013-01-23 06:49:00,
2013-01-23 00:50:00,4.0,-0.3,30.23,WSW,241,2.2,5.8,82,0.00,CLR,,0.00,WeatherDisplay:10.37,2013-01-23 06:50:00,
2013-01-23 00:51:00,4.1,-0.2,30.23,SW,217,3.5,5.8,82,0.00,CLR,,0.00,WeatherDisplay:10.37,2013-01-23 06:51:00,
2013-01-23 00:54:00,4.3,0.0,30.23,WSW,246,2.7,5.8,82,0.00,CLR,,0.00,WeatherDisplay:10.37,2013-01-23 06:54:00,
2013-01-23 00:55:00,4.4,-0.1,30.23,WSW,243,3.8,5.8,81,0.00,CLR,,0.00,WeatherDisplay:10.37,2013-01-23 06:55:00,
2013-01-23 00:57:00,4.3,-0.2,30.23,SW,229,0.1,5.8,81,0.00,CLR,,0.00,WeatherDisplay:10.37,2013-01-23 06:57:00,
2013-01-23 00:59:00,4.3,-0.2,30.23,SW,230,1.2,5.8,81,0.00,CLR,,0.00,WeatherDisplay:10.37,2013-01-23 06:59:00,
2013-01-23 01:01:00,4.3,-0.2,30.23,WSW,257,0.1,3.5,81,0.00,CLR,,0.00,WeatherDisplay:10.37,2013-01-23 07:01:00,
2013-01-23 01:02:00,4.3,-0.2,30.23,West,261,1.0,4.6,81,0.00,CLR,,0.00,WeatherDisplay:10.37,2013-01-23 07:02:00,
2013-01-23 01:03:00,4.3,-0.2,30.23,WNW,294,0.5,3.5,81,0.00,CLR,,0.00,WeatherDisplay:10.37,2013-01-23 07:03:00,
2013-01-23 01:04:00,4.4,-0.1,30.23,West,280,2.9,4.0,81,0.00,CLR,,0.00,WeatherDisplay:10.37,2013-01-23 07:04:00,
2013-01-23 01:06:00,4.4,-0.1,30.23,West,268,2.8,5.8,81,0.00,CLR,,0.00,WeatherDisplay:10.37,2013-01-23 07:06:00,
2013-01-23 01:07:00,4.5,0.0,30.22,WSW,251,1.5,3.5,81,0.00,CLR,,0.00,WeatherDisplay:10.37,2013-01-23 07:07:00,
2013-01-23 01:08:00,4.4,-0.1,30.22,West,260,0.2,5.1,81,0.00,CLR,,0.00,WeatherDisplay:10.37,2013-01-23 07:08:00,
2013-01-23 01:10:00,4.6,0.1,30.22,West,265,2.8,4.6,81,0.00,CLR,,0.00,WeatherDisplay:10.37,2013-01-23 07:10:00,
2013-01-23 01:11:00,4.5,0.2,30.22,West,265,0.0,4.6,82,0.00,CLR,,0.00,WeatherDisplay:10.37,2013-01-23 07:11:00,
2013-01-23 01:12:00,4.5,0.2,30.22,WSW,244,2.2,4.0,82,0.00,CLR,,0.00,WeatherDisplay:10.37,2013-01-23 07:12:00,
2013-01-23 01:14:00,4.6,0.3,30.22,West,281,0.0,2.3,82,0.00,CLR,,0.00,WeatherDisplay:10.37,2013-01-23 07:14:00,
2013-01-23 01:15:00,4.5,0.2,30.22,West,281,0.0,0.0,82,0.00,CLR,,0.00,WeatherDisplay:10.37,2013-01-23 07:15:00,
2013-01-23 01:16:00,4.7,0.4,30.22,West,281,0.0,0.0,82,0.00,CLR,,0.00,WeatherDisplay:10.37,2013-01-23 07:16:00,
2013-01-23 01:18:00,4.6,0.3,30.22,West,281,0.0,0.0,82,0.00,CLR,,0.00,WeatherDisplay:10.37,2013-01-23 07:18:00,
2013-01-23 01:19:00,4.7,0.4,30.22,WSW,253,0.8,3.5,82,0.00,CLR,,0.00,WeatherDisplay:10.37,2013-01-23 07:19:00,
2013-01-23 01:20:00,4.6,0.3,30.22,WSW,253,0.0,3.5,82,0.00,CLR,,0.00,WeatherDisplay:10.37,2013-01-23 07:20:00,
2013-01-23 01:21:00,4.7,0.4,30.22,WSW,253,0.0,0.0,82,0.00,CLR,,0.00,WeatherDisplay:10.37,2013-01-23 07:21:00,
2013-01-23 01:23:00,4.7,0.4,30.22,WSW,253,1.0,4.6,82,0.00,CLR,,0.00,WeatherDisplay:10.37,2013-01-23 07:23:00,
2013-01-23 01:24:00,4.6,0.1,30.22,WSW,246,0.4,3.5,81,0.00,CLR,,0.00,WeatherDisplay:10.37,2013-01-23 07:24:00,
2013-01-23 01:25:00,4.7,0.2,30.22,WSW,246,0.0,3.5,81,0.00,CLR,,0.00,WeatherDisplay:10.37,2013-01-23 07:25:00,
2013-01-23 01:28:00,4.8,0.2,30.22,WSW,256,1.5,4.6,81,0.00,CLR,,0.00,WeatherDisplay:10.37,2013-01-23 07:28:00,
2013-01-23 01:29:00,4.9,0.3,30.22,West,277,2.4,5.8,81,0.00,CLR,,0.00,WeatherDisplay:10.37,2013-01-23 07:29:00,
2013-01-23 01:30:00,5.0,0.4,30.22,West,272,0.7,3.5,81,0.00,CLR,,0.00,WeatherDisplay:10.37,2013-01-23 07:30:00,
2013-01-23 01:33:00,4.9,0.3,30.22,WNW,294,0.1,2.1,81,0.00,CLR,,0.00,WeatherDisplay:10.37,2013-01-23 07:33:00,
2013-01-23 01:35:00,5.0,0.4,30.22,SW,223,2.2,2.2,81,0.00,CLR,,0.00,WeatherDisplay:10.37,2013-01-23 07:35:00,
2013-01-23 01:38:00,4.8,0.0,30.22,WNW,282,0.1,2.3,80,0.00,CLR,,0.00,WeatherDisplay:10.37,2013-01-23 07:38:00,
2013-01-23 01:40:00,4.9,0.1,30.23,WNW,282,0.0,0.0,80,0.00,CLR,,0.00,WeatherDisplay:10.37,2013-01-23 07:40:00,
2013-01-23 01:43:00,5.0,0.2,30.22,SW,233,0.3,4.6,80,0.00,CLR,,0.00,WeatherDisplay:10.37,2013-01-23 07:43:00,
2013-01-23 01:44:00,5.1,0.3,30.22,SW,233,0.0,1.1,80,0.00,CLR,,0.00,WeatherDisplay:10.37,2013-01-23 07:44:00,
2013-01-23 01:45:00,5.0,0.2,30.23,WSW,248,0.2,1.1,80,0.00,CLR,,0.00,WeatherDisplay:10.37,2013-01-23 07:45:00,
2013-01-23 01:46:00,5.0,0.2,30.23,WSW,248,0.1,1.1,80,0.00,CLR,,0.00,WeatherDisplay:10.37,2013-01-23 07:46:00,
2013-01-23 01:48:00,5.0,0.2,30.23,West,274,0.0,1.1,80,0.00,CLR,,0.00,WeatherDisplay:10.37,2013-01-23 07:48:00,
2013-01-23 01:49:00,5.1,0.3,30.23,West,268,0.5,5.0,80,0.00,CLR,,0.00,WeatherDisplay:10.37,2013-01-23 07:49:00,
2013-01-23 01:50:00,5.0,0.2,30.23,West,263,2.8,5.8,80,0.00,CLR,,0.00,WeatherDisplay:10.37,2013-01-23 07:50:00,
2013-01-23 01:52:00,5.1,0.3,30.23,WSW,256,0.8,4.6,80,0.00,CLR,,0.00,WeatherDisplay:10.37,2013-01-23 07:52:00,
2013-01-23 01:53:00,5.1,0.3,30.23,WSW,256,0.0,1.1,80,0.00,CLR,,0.00,WeatherDisplay:10.37,2013-01-23 07:53:00,
2013-01-23 01:54:00,5.1,0.3,30.23,WSW,256,1.3,4.6,80,0.00,CLR,,0.00,WeatherDisplay:10.37,2013-01-23 07:54:00,
2013-01-23 01:55:00,5.1,0.3,30.23,West,275,2.0,5.2,80,0.00,CLR,,0.00,WeatherDisplay:10.37,2013-01-23 07:55:00,
2013-01-23 01:57:00,5.2,0.4,30.23,WSW,243,2.9,5.8,80,0.00,CLR,,0.00,WeatherDisplay:10.37,2013-01-23 07:57:00,
2013-01-23 01:58:00,5.2,0.4,30.23,WSW,250,2.2,5.8,80,0.00,CLR,,0.00,WeatherDisplay:10.37,2013-01-23 07:58:00,
2013-01-23 01:59:00,5.2,0.4,30.23,WSW,250,0.3,3.5,80,0.00,CLR,,0.00,WeatherDisplay:10.37,2013-01-23 07:59:00,
2013-01-23 02:01:00,5.2,0.4,30.23,WSW,250,0.0,0.0,80,0.00,CLR,,0.00,WeatherDisplay:10.37,2013-01-23 08:01:00,
2013-01-23 02:02:00,5.2,0.4,30.23,WSW,250,0.0,0.0,80,0.00,CLR,,0.00,WeatherDisplay:10.37,2013-01-23 08:02:00,
2013-01-23 02:03:00,5.2,0.1,30.23,WNW,285,1.4,4.8,79,0.00,CLR,,0.00,WeatherDisplay:10.37,2013-01-23 08:03:00,
2013-01-23 02:05:00,5.3,0.2,30.22,WSW,248,0.0,3.5,79,0.00,CLR,,0.00,WeatherDisplay:10.37,2013-01-23 08:05:00,
2013-01-23 02:07:00,5.3,0.5,30.23,WSW,248,0.0,0.0,80,0.00,CLR,,0.00,WeatherDisplay:10.37,2013-01-23 08:07:00,
2013-01-23 02:08:00,5.2,0.4,30.23,WNW,282,2.7,5.8,80,0.00,CLR,,0.00,WeatherDisplay:10.37,2013-01-23 08:08:00,
2013-01-23 02:10:00,5.3,0.5,30.23,WSW,247,0.2,2.3,80,0.00,CLR,,0.00,WeatherDisplay:10.37,2013-01-23 08:10:00,
2013-01-23 02:12:00,5.3,0.5,30.23,West,272,3.3,4.6,80,0.00,CLR,,0.00,WeatherDisplay:10.37,2013-01-23 08:12:00,
2013-01-23 02:13:00,5.5,0.7,30.23,West,272,1.4,5.8,80,0.00,CLR,,0.00,WeatherDisplay:10.37,2013-01-23 08:13:00,
2013-01-23 02:14:00,5.3,0.2,30.23,SSW,212,1.4,4.6,79,0.00,CLR,,0.00,WeatherDisplay:10.37,2013-01-23 08:14:00,
2013-01-23 02:15:00,5.3,0.2,30.22,West,260,4.6,6.9,79,0.00,CLR,,0.00,WeatherDisplay:10.37,2013-01-23 08:15:00,
2013-01-23 02:18:00,5.5,0.4,30.23,West,261,3.2,6.9,79,0.00,CLR,,0.00,WeatherDisplay:10.37,2013-01-23 08:18:00,
2013-01-23 02:19:00,5.4,0.3,30.23,WSW,254,1.6,4.6,79,0.00,CLR,,0.00,WeatherDisplay:10.37,2013-01-23 08:19:00,
2013-01-23 02:20:00,5.4,0.3,30.23,West,270,3.0,5.8,79,0.00,CLR,,0.00,WeatherDisplay:10.37,2013-01-23 08:20:00,
2013-01-23 02:23:00,5.5,0.4,30.23,West,267,1.7,5.8,79,0.00,CLR,,0.00,WeatherDisplay:10.37,2013-01-23 08:23:00,
2013-01-23 02:24:00,5.6,0.5,30.23,SW,223,1.1,2.3,79,0.00,CLR,,0.00,WeatherDisplay:10.37,2013-01-23 08:24:00,
2013-01-23 02:25:00,5.5,0.4,30.23,WSW,240,0.1,1.1,79,0.00,CLR,,0.00,WeatherDisplay:10.37,2013-01-23 08:25:00,
2013-01-23 02:28:00,5.5,0.4,30.23,West,268,2.3,5.5,79,0.00,CLR,,0.00,WeatherDisplay:10.37,2013-01-23 08:28:00,
2013-01-23 02:29:00,5.5,0.4,30.23,West,267,2.3,5.8,79,0.00,CLR,,0.00,WeatherDisplay:10.37,2013-01-23 08:29:00,
2013-01-23 02:31:00,5.6,0.5,30.23,West,277,2.3,4.6,79,0.00,CLR,,0.00,WeatherDisplay:10.37,2013-01-23 08:31:00,
2013-01-23 02:33:00,5.6,0.5,30.22,WNW,292,2.2,4.6,79,0.00,CLR,,0.00,WeatherDisplay:10.37,2013-01-23 08:33:00,
2013-01-23 02:34:00,5.5,0.1,30.22,West,261,1.9,3.5,78,0.00,CLR,,0.00,WeatherDisplay:10.37,2013-01-23 08:34:00,
2013-01-23 02:36:00,5.5,0.1,30.22,WNW,284,0.5,1.1,78,0.00,CLR,,0.00,WeatherDisplay:10.37,2013-01-23 08:36:00,
2013-01-23 02:38:00,5.6,0.2,30.22,WNW,284,0.0,0.0,78,0.00,CLR,,0.00,WeatherDisplay:10.37,2013-01-23 08:38:00,
2013-01-23 02:39:00,5.6,0.2,30.22,SW,232,2.5,3.5,78,0.00,CLR,,0.00,WeatherDisplay:10.37,2013-01-23 08:39:00,
2013-01-23 02:41:00,5.7,0.3,30.22,West,277,1.4,2.3,78,0.00,CLR,,0.00,WeatherDisplay:10.37,2013-01-23 08:41:00,
2013-01-23 02:43:00,5.7,0.3,30.22,West,277,3.7,4.6,78,0.00,CLR,,0.00,WeatherDisplay:10.37,2013-01-23 08:43:00,
2013-01-23 02:44:00,5.6,0.2,30.22,West,274,3.8,6.9,78,0.00,CLR,,0.00,WeatherDisplay:10.37,2013-01-23 08:44:00,
2013-01-23 02:46:00,5.6,0.2,30.22,WNW,292,4.7,8.1,78,0.00,CLR,,0.00,WeatherDisplay:10.37,2013-01-23 08:46:00,
2013-01-23 02:48:00,5.7,0.3,30.22,WSW,256,0.0,4.6,78,0.00,CLR,,0.00,WeatherDisplay:10.37,2013-01-23 08:48:00,
2013-01-23 02:49:00,5.7,0.3,30.22,West,271,1.7,5.0,78,0.00,CLR,,0.00,WeatherDisplay:10.37,2013-01-23 08:49:00,
2013-01-23 02:50:00,5.8,0.4,30.22,West,277,2.8,3.5,78,0.00,CLR,,0.00,WeatherDisplay:10.37,2013-01-23 08:50:00,
2013-01-23 02:51:00,5.7,0.3,30.22,WNW,284,1.5,5.8,78,0.00,CLR,,0.00,WeatherDisplay:10.37,2013-01-23 08:51:00,
2013-01-23 02:53:00,5.8,0.4,30.22,WSW,247,3.0,4.6,78,0.00,CLR,,0.00,WeatherDisplay:10.37,2013-01-23 08:53:00,
2013-01-23 02:54:00,5.8,0.4,30.22,West,261,3.3,4.6,78,0.00,CLR,,0.00,WeatherDisplay:10.37,2013-01-23 08:54:00,
2013-01-23 02:55:00,5.8,0.4,30.22,WSW,254,2.9,4.6,78,0.00,CLR,,0.00,WeatherDisplay:10.37,2013-01-23 08:55:00,
2013-01-23 02:58:00,5.9,0.5,30.22,WSW,240,2.0,3.5,78,0.00,CLR,,0.00,WeatherDisplay:10.37,2013-01-23 08:58:00,
2013-01-23 03:00:00,5.8,0.4,30.22,WNW,291,1.8,2.3,78,0.00,CLR,,0.00,WeatherDisplay:10.37,2013-01-23 09:00:00,
2013-01-23 03:03:00,5.9,0.5,30.22,West,260,3.0,5.8,78,0.00,CLR,,0.00,WeatherDisplay:10.37,2013-01-23 09:03:00,
2013-01-23 03:05:00,5.9,0.5,30.22,WSW,258,2.5,5.8,78,0.00,CLR,,0.00,WeatherDisplay:10.37,2013-01-23 09:05:00,
2013-01-23 03:06:00,5.9,0.5,30.22,WSW,239,0.8,4.6,78,0.00,CLR,,0.00,WeatherDisplay:10.37,2013-01-23 09:06:00,
2013-01-23 03:08:00,6.1,0.7,30.22,SW,236,3.1,4.6,78,0.00,CLR,,0.00,WeatherDisplay:10.37,2013-01-23 09:08:00,
2013-01-23 03:10:00,6.0,0.6,30.22,WSW,243,4.8,8.1,78,0.00,CLR,,0.00,WeatherDisplay:10.37,2013-01-23 09:10:00,
2013-01-23 03:12:00,6.1,0.7,30.22,West,263,0.1,6.9,78,0.00,CLR,,0.00,WeatherDisplay:10.37,2013-01-23 09:12:00,
2013-01-23 03:13:00,6.1,0.7,30.22,West,263,0.0,0.0,78,0.00,CLR,,0.00,WeatherDisplay:10.37,2013-01-23 09:13:00,
2013-01-23 03:15:00,6.1,0.7,30.22,West,263,0.0,0.0,78,0.00,CLR,,0.00,WeatherDisplay:10.37,2013-01-23 09:15:00,
2013-01-23 03:17:00,6.1,0.7,30.22,SW,215,1.9,4.6,78,0.00,CLR,,0.00,WeatherDisplay:10.37,2013-01-23 09:17:00,
2013-01-23 03:18:00,6.1,0.7,30.22,West,272,2.2,3.5,78,0.00,CLR,,0.00,WeatherDisplay:10.37,2013-01-23 09:18:00,
2013-01-23 03:20:00,6.1,0.7,30.22,WSW,256,1.0,3.4,78,0.00,CLR,,0.00,WeatherDisplay:10.37,2013-01-23 09:20:00,
2013-01-23 03:23:00,6.1,0.7,30.21,SW,234,1.7,4.6,78,0.00,CLR,,0.00,WeatherDisplay:10.37,2013-01-23 09:23:00,
2013-01-23 03:25:00,6.2,0.8,30.21,SW,219,2.4,5.6,78,0.00,CLR,,0.00,WeatherDisplay:10.37,2013-01-23 09:25:00,
2013-01-23 03:28:00,6.3,0.9,30.22,SSW,198,0.2,3.5,78,0.00,CLR,,0.00,WeatherDisplay:10.37,2013-01-23 09:28:00,
2013-01-23 03:29:00,6.3,0.9,30.21,WSW,250,1.7,1.7,78,0.00,CLR,,0.00,WeatherDisplay:10.37,2013-01-23 09:29:00,
2013-01-23 03:31:00,6.3,0.9,30.21,West,277,1.0,5.8,78,0.00,CLR,,0.00,WeatherDisplay:10.37,2013-01-23 09:31:00,
2013-01-23 03:33:00,6.2,0.5,30.21,West,271,0.2,5.8,77,0.00,CLR,,0.00,WeatherDisplay:10.37,2013-01-23 09:33:00,
2013-01-23 03:34:00,6.2,0.5,30.21,West,271,0.0,0.0,77,0.00,CLR,,0.00,WeatherDisplay:10.37,2013-01-23 09:34:00,
2013-01-23 03:36:00,6.3,0.6,30.21,West,271,0.0,0.0,77,0.00,CLR,,0.00,WeatherDisplay:10.37,2013-01-23 09:36:00,
2013-01-23 03:38:00,6.2,0.5,30.21,WSW,251,1.6,5.8,77,0.00,CLR,,0.00,WeatherDisplay:10.37,2013-01-23 09:38:00,
2013-01-23 03:39:00,6.3,0.6,30.21,West,280,1.3,3.5,77,0.00,CLR,,0.00,WeatherDisplay:10.37,2013-01-23 09:39:00,
2013-01-23 03:41:00,6.2,0.8,30.21,WSW,258,2.6,5.8,78,0.00,CLR,,0.00,WeatherDisplay:10.37,2013-01-23 09:41:00,
2013-01-23 03:43:00,6.4,1.0,30.21,WNW,291,0.5,4.6,78,0.00,CLR,,0.00,WeatherDisplay:10.37,2013-01-23 09:43:00,
2013-01-23 03:44:00,6.4,1.0,30.21,WNW,291,0.0,1.1,78,0.00,CLR,,0.00,WeatherDisplay:10.37,2013-01-23 09:44:00,
2013-01-23 03:46:00,6.3,0.9,30.21,WSW,244,0.4,2.3,78,0.00,CLR,,0.00,WeatherDisplay:10.37,2013-01-23 09:46:00,
2013-01-23 03:48:00,6.4,1.0,30.21,WSW,244,0.0,0.0,78,0.00,CLR,,0.00,WeatherDisplay:10.37,2013-01-23 09:48:00,
2013-01-23 03:49:00,6.4,1.0,30.21,WSW,256,1.4,4.6,78,0.00,CLR,,0.00,WeatherDisplay:10.37,2013-01-23 09:49:00,
2013-01-23 03:51:00,6.5,1.1,30.21,WSW,256,1.5,4.6,78,0.00,CLR,,0.00,WeatherDisplay:10.37,2013-01-23 09:51:00,
2013-01-23 03:53:00,6.4,1.0,30.21,WSW,254,0.0,5.8,78,0.00,CLR,,0.00,WeatherDisplay:10.37,2013-01-23 09:53:00,
2013-01-23 03:54:00,6.4,1.0,30.21,WSW,254,0.0,0.0,78,0.00,CLR,,0.00,WeatherDisplay:10.37,2013-01-23 09:54:00,
2013-01-23 03:55:00,6.4,1.0,30.21,WSW,254,0.0,0.0,78,0.00,CLR,,0.00,WeatherDisplay:10.37,2013-01-23 09:55:00,
2013-01-23 03:56:00,6.5,1.1,30.20,SW,227,1.0,5.9,78,0.00,CLR,,0.00,WeatherDisplay:10.37,2013-01-23 09:56:00,
2013-01-23 03:58:00,6.4,1.0,30.20,WSW,244,1.1,2.3,78,0.00,CLR,,0.00,WeatherDisplay:10.37,2013-01-23 09:58:00,
2013-01-23 03:59:00,6.5,1.1,30.20,West,275,0.8,2.3,78,0.00,CLR,,0.00,WeatherDisplay:10.37,2013-01-23 09:59:00,
2013-01-23 04:00:00,6.5,1.1,30.20,NW,304,2.0,3.5,78,0.00,CLR,,0.00,WeatherDisplay:10.37,2013-01-23 10:00:00,
2013-01-23 04:01:00,6.5,1.1,30.20,West,271,4.1,5.8,78,0.00,CLR,,0.00,WeatherDisplay:10.37,2013-01-23 10:01:00,
2013-01-23 04:03:00,6.5,1.1,30.20,West,274,0.4,3.5,78,0.00,CLR,,0.00,WeatherDisplay:10.37,2013-01-23 10:03:00,
2013-01-23 04:04:00,6.5,1.1,30.20,West,274,0.0,0.0,78,0.00,CLR,,0.00,WeatherDisplay:10.37,2013-01-23 10:04:00,
2013-01-23 04:05:00,6.7,1.3,30.20,West,274,0.0,0.0,78,0.00,CLR,,0.00,WeatherDisplay:10.37,2013-01-23 10:05:00,
2013-01-23 04:07:00,6.4,1.0,30.20,WNW,282,2.8,2.8,78,0.00,CLR,,0.00,WeatherDisplay:10.37,2013-01-23 10:07:00,
2013-01-23 04:09:00,6.7,1.3,30.20,WSW,254,0.5,3.5,78,0.00,CLR,,0.00,WeatherDisplay:10.37,2013-01-23 10:09:00,
2013-01-23 04:10:00,6.7,1.3,30.20,WSW,258,1.5,4.6,78,0.00,CLR,,0.00,WeatherDisplay:10.37,2013-01-23 10:10:00,
2013-01-23 04:12:00,6.6,1.2,30.20,West,267,3.4,5.8,78,0.00,CLR,,0.00,WeatherDisplay:10.37,2013-01-23 10:12:00,
2013-01-23 04:14:00,6.6,0.9,30.20,WSW,239,2.7,5.8,77,0.00,CLR,,0.00,WeatherDisplay:10.37,2013-01-23 10:14:00,
2013-01-23 04:15:00,6.7,1.3,30.20,WNW,296,2.4,2.4,78,0.00,CLR,,0.00,WeatherDisplay:10.37,2013-01-23 10:15:00,
2013-01-23 04:17:00,6.7,1.3,30.20,WSW,251,2.7,4.6,78,0.00,CLR,,0.00,WeatherDisplay:10.37,2013-01-23 10:17:00,
2013-01-23 04:19:00,6.7,1.0,30.20,WSW,251,0.0,1.1,77,0.00,CLR,,0.00,WeatherDisplay:10.37,2013-01-23 10:19:00,
2013-01-23 04:20:00,6.6,1.2,30.20,WSW,250,0.5,4.4,78,0.00,CLR,,0.00,WeatherDisplay:10.37,2013-01-23 10:20:00,
2013-01-23 04:22:00,6.6,1.2,30.20,WSW,247,2.5,4.6,78,0.00,CLR,,0.00,WeatherDisplay:10.37,2013-01-23 10:22:00,
2013-01-23 04:24:00,6.9,1.5,30.20,SW,230,1.8,3.5,78,0.00,CLR,,0.00,WeatherDisplay:10.37,2013-01-23 10:24:00,
2013-01-23 04:25:00,6.8,1.4,30.19,WSW,239,3.8,6.9,78,0.00,CLR,,0.00,WeatherDisplay:10.37,2013-01-23 10:25:00,
2013-01-23 04:26:00,6.7,1.3,30.19,West,260,4.7,6.9,78,0.00,CLR,,0.00,WeatherDisplay:10.37,2013-01-23 10:26:00,
2013-01-23 04:28:00,6.7,1.0,30.19,SW,230,1.6,4.6,77,0.00,CLR,,0.00,WeatherDisplay:10.37,2013-01-23 10:28:00,
2013-01-23 04:29:00,6.7,1.0,30.19,SW,215,0.4,3.5,77,0.00,CLR,,0.00,WeatherDisplay:10.37,2013-01-23 10:29:00,
2013-01-23 04:30:00,6.7,1.3,30.19,West,264,2.8,4.6,78,0.00,CLR,,0.00,WeatherDisplay:10.37,2013-01-23 10:30:00,
2013-01-23 04:32:00,6.9,1.2,30.19,WSW,244,0.9,3.5,77,0.00,CLR,,0.00,WeatherDisplay:10.37,2013-01-23 10:32:00,
2013-01-23 04:33:00,6.8,1.4,30.19,West,261,0.3,2.3,78,0.00,CLR,,0.00,WeatherDisplay:10.37,2013-01-23 10:33:00,
2013-01-23 04:34:00,6.9,1.5,30.19,West,261,0.5,2.3,78,0.00,CLR,,0.00,WeatherDisplay:10.37,2013-01-23 10:34:00,
2013-01-23 04:36:00,6.8,1.4,30.19,WSW,254,2.3,5.8,78,0.00,CLR,,0.00,WeatherDisplay:10.37,2013-01-23 10:36:00,
2013-01-23 04:37:00,6.8,1.4,30.19,WSW,254,1.6,5.8,78,0.00,CLR,,0.00,WeatherDisplay:10.37,2013-01-23 10:37:00,
2013-01-23 04:38:00,7.0,1.6,30.19,WSW,254,0.0,0.0,78,0.00,CLR,,0.00,WeatherDisplay:10.37,2013-01-23 10:38:00,
2013-01-23 04:39:00,7.0,1.6,30.19,West,272,2.3,5.8,78,0.00,CLR,,0.00,WeatherDisplay:10.37,2013-01-23 10:39:00,
2013-01-23 04:42:00,6.9,1.5,30.19,West,260,3.7,6.9,78,0.00,CLR,,0.00,WeatherDisplay:10.37,2013-01-23 10:42:00,
2013-01-23 04:44:00,6.9,1.2,30.19,WSW,241,3.4,5.8,77,0.00,CLR,,0.00,WeatherDisplay:10.37,2013-01-23 10:44:00,
2013-01-23 04:47:00,6.9,1.2,30.19,WSW,246,3.0,4.6,77,0.00,CLR,,0.00,WeatherDisplay:10.37,2013-01-23 10:47:00,
2013-01-23 04:48:00,6.9,1.2,30.19,West,265,2.8,4.6,77,0.00,CLR,,0.00,WeatherDisplay:10.37,2013-01-23 10:48:00,
2013-01-23 04:49:00,6.9,1.2,30.19,West,260,2.1,5.8,77,0.00,CLR,,0.00,WeatherDisplay:10.37,2013-01-23 10:49:00,
2013-01-23 04:53:00,6.9,1.2,30.18,West,260,2.6,5.8,77,0.00,CLR,,0.00,WeatherDisplay:10.37,2013-01-23 10:53:00,
2013-01-23 04:54:00,6.9,1.2,30.19,WSW,248,2.4,5.8,77,0.00,CLR,,0.00,WeatherDisplay:10.37,2013-01-23 10:54:00,
2013-01-23 04:58:00,7.1,1.7,30.19,West,268,1.8,3.5,78,0.00,CLR,,0.00,WeatherDisplay:10.37,2013-01-23 10:58:00,
2013-01-23 04:59:00,7.1,1.7,30.19,West,272,4.4,5.8,78,0.00,CLR,,0.00,WeatherDisplay:10.37,2013-01-23 10:59:00,
2013-01-23 05:00:00,6.9,1.5,30.19,WSW,257,2.8,6.9,78,0.00,CLR,,0.00,WeatherDisplay:10.37,2013-01-23 11:00:00,
2013-01-23 05:03:00,7.2,1.8,30.19,SW,236,2.8,5.8,78,0.00,CLR,,0.00,WeatherDisplay:10.37,2013-01-23 11:03:00,
2013-01-23 05:04:00,7.1,1.7,30.19,WSW,237,2.0,4.6,78,0.00,CLR,,0.00,WeatherDisplay:10.37,2013-01-23 11:04:00,
2013-01-23 05:05:00,7.2,1.8,30.19,WSW,251,0.8,3.5,78,0.00,CLR,,0.00,WeatherDisplay:10.37,2013-01-23 11:05:00,
2013-01-23 05:08:00,7.3,1.9,30.19,West,264,1.8,5.8,78,0.00,CLR,,0.00,WeatherDisplay:10.37,2013-01-23 11:08:00,
2013-01-23 05:09:00,7.3,1.9,30.19,West,264,1.8,5.8,78,0.00,CLR,,0.00,WeatherDisplay:10.37,2013-01-23 11:09:00,
2013-01-23 05:11:00,7.2,1.8,30.19,WSW,250,3.0,8.1,78,0.00,CLR,,0.00,WeatherDisplay:10.37,2013-01-23 11:11:00,
2013-01-23 05:14:00,7.3,1.9,30.19,WSW,247,2.5,5.2,78,0.00,CLR,,0.00,WeatherDisplay:10.37,2013-01-23 11:14:00,
2013-01-23 05:15:00,7.2,1.8,30.19,WSW,254,2.7,5.8,78,0.00,CLR,,0.00,WeatherDisplay:10.37,2013-01-23 11:15:00,
2013-01-23 05:17:00,7.2,1.8,30.19,WSW,237,2.6,8.1,78,0.00,CLR,,0.00,WeatherDisplay:10.37,2013-01-23 11:17:00,
2013-01-23 05:19:00,7.3,1.9,30.19,SSW,212,4.3,6.9,78,0.00,CLR,,0.00,WeatherDisplay:10.37,2013-01-23 11:19:00,
2013-01-23 05:20:00,7.2,1.8,30.18,West,268,3.2,6.9,78,0.00,CLR,,0.00,WeatherDisplay:10.37,2013-01-23 11:20:00,
2013-01-23 05:22:00,7.2,1.8,30.18,WSW,250,3.1,5.8,78,0.00,CLR,,0.00,WeatherDisplay:10.37,2013-01-23 11:22:00,
2013-01-23 05:24:00,7.3,1.9,30.18,WSW,244,0.4,3.5,78,0.00,CLR,,0.00,WeatherDisplay:10.37,2013-01-23 11:24:00,
2013-01-23 05:25:00,7.3,1.9,30.18,West,263,0.9,4.6,78,0.00,CLR,,0.00,WeatherDisplay:10.37,2013-01-23 11:25:00,
2013-01-23 05:28:00,7.4,2.0,30.19,West,281,1.5,3.5,78,0.00,CLR,,0.00,WeatherDisplay:10.37,2013-01-23 11:28:00,
2013-01-23 05:29:00,7.3,1.9,30.19,West,277,0.3,3.5,78,0.00,CLR,,0.00,WeatherDisplay:10.37,2013-01-23 11:29:00,
2013-01-23 05:32:00,7.4,2.0,30.19,West,267,3.2,3.5,78,0.00,CLR,,0.00,WeatherDisplay:10.37,2013-01-23 11:32:00,
2013-01-23 05:34:00,7.4,2.0,30.18,SW,226,0.0,2.3,78,0.00,CLR,,0.00,WeatherDisplay:10.37,2013-01-23 11:34:00,
2013-01-23 05:35:00,7.4,2.0,30.18,SW,229,2.0,3.5,78,0.00,CLR,,0.00,WeatherDisplay:10.37,2013-01-23 11:35:00,
2013-01-23 05:37:00,7.6,2.2,30.18,SW,216,1.5,2.3,78,0.00,CLR,,0.00,WeatherDisplay:10.37,2013-01-23 11:37:00,
2013-01-23 05:39:00,7.4,2.0,30.18,WSW,239,2.6,4.1,78,0.00,CLR,,0.00,WeatherDisplay:10.37,2013-01-23 11:39:00,
2013-01-23 05:40:00,7.5,2.1,30.18,WSW,251,3.2,4.6,78,0.00,CLR,,0.00,WeatherDisplay:10.37,2013-01-23 11:40:00,
2013-01-23 05:42:00,7.5,2.1,30.18,WSW,248,1.4,3.9,78,0.00,CLR,,0.00,WeatherDisplay:10.37,2013-01-23 11:42:00,
2013-01-23 05:44:00,7.4,2.0,30.18,West,267,0.0,1.1,78,0.00,CLR,,0.00,WeatherDisplay:10.37,2013-01-23 11:44:00,
2013-01-23 05:45:00,7.5,2.1,30.18,West,267,0.0,0.0,78,0.00,CLR,,0.00,WeatherDisplay:10.37,2013-01-23 11:45:00,
2013-01-23 05:47:00,7.6,2.4,30.18,West,267,0.0,0.0,79,0.00,CLR,,0.00,WeatherDisplay:10.37,2013-01-23 11:47:00,
2013-01-23 05:49:00,7.5,2.1,30.18,WSW,244,3.5,5.8,78,0.00,CLR,,0.00,WeatherDisplay:10.37,2013-01-23 11:49:00,
2013-01-23 05:50:00,7.5,2.1,30.18,WNW,287,3.2,5.8,78,0.00,CLR,,0.00,WeatherDisplay:10.37,2013-01-23 11:50:00,
2013-01-23 05:52:00,7.6,2.4,30.18,West,264,1.1,3.5,79,0.00,CLR,,0.00,WeatherDisplay:10.37,2013-01-23 11:52:00,
2013-01-23 05:54:00,7.6,2.4,30.18,West,265,1.6,2.5,79,0.00,CLR,,0.00,WeatherDisplay:10.37,2013-01-23 11:54:00,
2013-01-23 05:55:00,7.6,2.4,30.18,WSW,250,2.3,2.3,79,0.00,CLR,,0.00,WeatherDisplay:10.37,2013-01-23 11:55:00,
2013-01-23 05:58:00,7.7,2.5,30.18,West,271,0.6,3.5,79,0.00,CLR,,0.00,WeatherDisplay:10.37,2013-01-23 11:58:00,
2013-01-23 05:59:00,7.7,2.5,30.18,WSW,243,0.3,3.5,79,0.00,CLR,,0.00,WeatherDisplay:10.37,2013-01-23 11:59:00,
2013-01-23 06:00:00,7.7,2.5,30.18,WSW,243,0.0,0.0,79,0.00,CLR,,0.00,WeatherDisplay:10.37,2013-01-23 12:00:00,
2013-01-23 06:03:00,7.7,2.5,30.18,WSW,241,1.6,5.8,79,0.00,CLR,,0.00,WeatherDisplay:10.37,2013-01-23 12:03:00,
2013-01-23 06:05:00,7.7,2.5,30.18,SW,233,0.7,2.3,79,0.00,CLR,,0.00,WeatherDisplay:10.37,2013-01-23 12:05:00,
2013-01-23 06:06:00,7.8,2.6,30.18,SW,233,0.1,2.3,79,0.00,CLR,,0.00,WeatherDisplay:10.37,2013-01-23 12:06:00,
2013-01-23 06:08:00,7.7,2.5,30.18,SW,233,0.0,0.0,79,0.00,CLR,,0.00,WeatherDisplay:10.37,2013-01-23 12:08:00,
2013-01-23 06:10:00,7.8,2.9,30.18,West,263,2.3,4.6,80,0.00,CLR,,0.00,WeatherDisplay:10.37,2013-01-23 12:10:00,
2013-01-23 06:11:00,7.8,2.9,30.18,WSW,244,1.8,4.6,80,0.00,CLR,,0.00,WeatherDisplay:10.37,2013-01-23 12:11:00,
2013-01-23 06:13:00,7.9,3.0,30.18,SW,222,4.3,6.9,80,0.00,CLR,,0.00,WeatherDisplay:10.37,2013-01-23 12:13:00,
2013-01-23 06:15:00,7.8,2.9,30.18,WSW,254,0.7,4.6,80,0.00,CLR,,0.00,WeatherDisplay:10.37,2013-01-23 12:15:00,
2013-01-23 06:16:00,7.8,2.9,30.18,WSW,254,0.3,1.1,80,0.00,CLR,,0.00,WeatherDisplay:10.37,2013-01-23 12:16:00,
2013-01-23 06:18:00,7.9,3.0,30.18,SW,215,2.9,4.2,80,0.00,CLR,,0.00,WeatherDisplay:10.37,2013-01-23 12:18:00,
2013-01-23 06:20:00,7.9,3.3,30.18,SSW,205,2.5,5.8,81,0.00,CLR,,0.00,WeatherDisplay:10.37,2013-01-23 12:20:00,
2013-01-23 06:21:00,7.8,3.2,30.18,SW,234,2.2,4.4,81,0.00,CLR,,0.00,WeatherDisplay:10.37,2013-01-23 12:21:00,
2013-01-23 06:23:00,7.8,3.2,30.18,WSW,246,0.0,3.0,81,0.00,CLR,,0.00,WeatherDisplay:10.37,2013-01-23 12:23:00,
2013-01-23 06:25:00,7.9,3.3,30.18,WSW,258,3.2,3.5,81,0.00,CLR,,0.00,WeatherDisplay:10.37,2013-01-23 12:25:00,
2013-01-23 06:27:00,7.9,3.5,30.18,West,260,3.0,6.9,82,0.00,CLR,,0.00,WeatherDisplay:10.37,2013-01-23 12:27:00,
2013-01-23 06:28:00,7.9,3.5,30.18,SW,234,3.0,6.9,82,0.00,CLR,,0.00,WeatherDisplay:10.37,2013-01-23 12:28:00,
2013-01-23 06:31:00,7.8,3.4,30.18,SW,223,2.6,3.5,82,0.00,CLR,,0.00,WeatherDisplay:10.37,2013-01-23 12:31:00,
2013-01-23 06:32:00,7.8,3.4,30.18,SW,219,2.8,3.5,82,0.00,CLR,,0.00,WeatherDisplay:10.37,2013-01-23 12:32:00,
2013-01-23 06:33:00,8.0,3.6,30.18,SW,232,2.0,4.6,82,0.00,CLR,,0.00,WeatherDisplay:10.37,2013-01-23 12:33:00,
2013-01-23 06:37:00,8.0,3.9,30.17,WSW,256,1.1,3.5,83,0.00,CLR,,0.00,WeatherDisplay:10.37,2013-01-23 12:37:00,
2013-01-23 06:38:00,8.0,3.9,30.17,WNW,282,2.0,4.6,83,0.00,CLR,,0.00,WeatherDisplay:10.37,2013-01-23 12:38:00,
2013-01-23 06:42:00,8.0,3.9,30.17,SW,219,2.4,4.6,83,0.00,CLR,,0.00,WeatherDisplay:10.37,2013-01-23 12:42:00,
2013-01-23 06:43:00,7.9,3.8,30.17,SW,227,2.1,4.6,83,0.00,CLR,,0.00,WeatherDisplay:10.37,2013-01-23 12:43:00,
2013-01-23 06:44:00,8.0,4.2,30.17,WSW,257,2.2,4.6,84,0.00,CLR,,0.00,WeatherDisplay:10.37,2013-01-23 12:44:00,
2013-01-23 06:48:00,8.1,4.3,30.17,WSW,257,2.3,5.5,84,0.00,CLR,,0.00,WeatherDisplay:10.37,2013-01-23 12:48:00,
2013-01-23 06:49:00,8.0,4.2,30.17,SW,233,3.3,5.8,84,0.00,CLR,,0.00,WeatherDisplay:10.37,2013-01-23 12:49:00,
2013-01-23 06:53:00,8.0,4.2,30.16,WSW,240,2.6,4.6,84,0.00,CLR,,0.00,WeatherDisplay:10.37,2013-01-23 12:53:00,
2013-01-23 06:54:00,8.0,4.2,30.16,WSW,258,3.1,4.6,84,0.00,CLR,,0.00,WeatherDisplay:10.37,2013-01-23 12:54:00,
2013-01-23 06:58:00,8.0,4.4,30.16,WSW,243,3.0,6.2,85,0.00,CLR,,0.00,WeatherDisplay:10.37,2013-01-23 12:58:00,
2013-01-23 06:59:00,8.0,4.4,30.16,WSW,237,4.7,6.2,85,0.00,CLR,,0.00,WeatherDisplay:10.37,2013-01-23 12:59:00,
2013-01-23 07:03:00,8.1,4.8,30.16,West,260,3.3,5.8,86,0.00,CLR,,0.00,WeatherDisplay:10.37,2013-01-23 13:03:00,
2013-01-23 07:04:00,8.1,4.8,30.16,SW,236,1.9,5.8,86,0.00,CLR,,0.00,WeatherDisplay:10.37,2013-01-23 13:04:00,
2013-01-23 07:09:00,8.0,4.9,30.16,SW,230,5.6,6.9,87,0.00,CLR,,0.00,WeatherDisplay:10.37,2013-01-23 13:09:00,
2013-01-23 07:10:00,8.1,5.0,30.16,West,280,4.0,6.9,87,0.00,CLR,,0.00,WeatherDisplay:10.37,2013-01-23 13:10:00,
2013-01-23 07:14:00,8.1,5.3,30.16,SW,233,3.2,4.6,88,0.00,CLR,,0.00,WeatherDisplay:10.37,2013-01-23 13:14:00,
2013-01-23 07:15:00,8.1,5.3,30.16,SW,217,3.5,5.0,88,0.00,CLR,,0.00,WeatherDisplay:10.37,2013-01-23 13:15:00,
2013-01-23 07:19:00,8.2,5.6,30.16,SW,216,2.3,4.6,89,0.00,CLR,,0.00,WeatherDisplay:10.37,2013-01-23 13:19:00,
2013-01-23 07:20:00,8.2,5.6,30.16,SW,223,3.7,5.2,89,0.00,CLR,,0.00,WeatherDisplay:10.37,2013-01-23 13:20:00,
2013-01-23 07:21:00,8.1,5.5,30.16,WSW,254,3.8,5.8,89,0.00,CLR,,0.00,WeatherDisplay:10.37,2013-01-23 13:21:00,
2013-01-23 07:24:00,8.1,5.5,30.16,WSW,237,4.4,6.9,89,0.00,CLR,,0.00,WeatherDisplay:10.37,2013-01-23 13:24:00,
2013-01-23 07:25:00,8.2,5.6,30.16,SW,229,2.5,6.9,89,0.00,CLR,,0.00,WeatherDisplay:10.37,2013-01-23 13:25:00,
2013-01-23 07:26:00,8.0,5.4,30.16,SW,226,2.0,4.6,89,0.00,CLR,,0.00,WeatherDisplay:10.37,2013-01-23 13:26:00,
2013-01-23 07:29:00,8.2,5.6,30.16,SW,217,2.5,3.5,89,0.00,CLR,,0.00,WeatherDisplay:10.37,2013-01-23 13:29:00,
2013-01-23 07:30:00,8.1,5.5,30.16,SSW,202,2.0,3.5,89,0.00,CLR,,0.00,WeatherDisplay:10.37,2013-01-23 13:30:00,
2013-01-23 07:31:00,8.1,5.5,30.16,SW,222,3.9,6.4,89,0.00,CLR,,0.00,WeatherDisplay:10.37,2013-01-23 13:31:00,
2013-01-23 07:35:00,8.2,5.9,30.16,SW,233,3.0,5.8,90,0.00,CLR,,0.00,WeatherDisplay:10.37,2013-01-23 13:35:00,
2013-01-23 07:36:00,8.2,5.9,30.16,SW,229,3.6,5.8,90,0.00,CLR,,0.00,WeatherDisplay:10.37,2013-01-23 13:36:00,
2013-01-23 07:40:00,8.2,5.9,30.16,SSW,206,2.5,5.8,90,0.00,CLR,,0.00,WeatherDisplay:10.37,2013-01-23 13:40:00,
2013-01-23 07:41:00,8.2,5.9,30.16,WSW,247,3.9,5.8,90,0.00,CLR,,0.00,WeatherDisplay:10.37,2013-01-23 13:41:00,
2013-01-23 07:45:00,8.2,5.9,30.16,WSW,250,4.3,6.9,90,0.00,CLR,,0.00,WeatherDisplay:10.37,2013-01-23 13:45:00,
2013-01-23 07:46:00,8.2,5.9,30.16,WSW,244,2.4,3.5,90,0.00,CLR,,0.00,WeatherDisplay:10.37,2013-01-23 13:46:00,
2013-01-23 07:50:00,8.2,5.9,30.16,SW,227,2.3,5.8,90,0.00,CLR,,0.00,WeatherDisplay:10.37,2013-01-23 13:50:00,
2013-01-23 07:51:00,8.3,6.0,30.16,WSW,258,1.7,4.6,90,0.00,CLR,,0.00,WeatherDisplay:10.37,2013-01-23 13:51:00,
2013-01-23 07:55:00,8.3,6.0,30.16,WSW,251,2.2,5.8,90,0.00,CLR,,0.00,WeatherDisplay:10.37,2013-01-23 13:55:00,
2013-01-23 07:56:00,8.3,6.0,30.16,SSW,209,1.9,5.8,90,0.00,CLR,,0.00,WeatherDisplay:10.37,2013-01-23 13:56:00,
2013-01-23 08:00:00,8.4,6.3,30.16,WSW,243,3.6,5.8,91,0.00,CLR,,0.00,WeatherDisplay:10.37,2013-01-23 14:00:00,
2013-01-23 08:01:00,8.3,6.2,30.16,SW,217,4.6,6.0,91,0.00,CLR,,0.00,WeatherDisplay:10.37,2013-01-23 14:01:00,
2013-01-23 08:06:00,8.6,6.5,30.16,WSW,247,3.9,4.6,91,0.00,CLR,,0.00,WeatherDisplay:10.37,2013-01-23 14:06:00,
2013-01-23 08:11:00,8.7,6.6,30.16,SW,229,3.2,4.6,91,0.00,CLR,,0.00,WeatherDisplay:10.37,2013-01-23 14:11:00,
2013-01-23 08:12:00,8.6,6.5,30.16,SW,215,3.4,5.8,91,0.00,CLR,,0.00,WeatherDisplay:10.37,2013-01-23 14:12:00,
2013-01-23 08:16:00,8.9,6.8,30.16,WSW,243,3.7,5.5,91,0.00,CLR,,0.00,WeatherDisplay:10.37,2013-01-23 14:16:00,
2013-01-23 08:17:00,8.7,6.9,30.16,WSW,258,3.6,5.8,92,0.00,CLR,,0.00,WeatherDisplay:10.37,2013-01-23 14:17:00,
2013-01-23 08:21:00,8.9,7.1,30.16,SW,234,2.3,4.6,92,0.00,CLR,,0.00,WeatherDisplay:10.37,2013-01-23 14:21:00,
2013-01-23 08:22:00,8.9,7.1,30.16,SW,223,1.6,5.5,92,0.00,CLR,,0.00,WeatherDisplay:10.37,2013-01-23 14:22:00,
2013-01-23 08:27:00,8.9,7.1,30.16,South,171,0.0,2.3,92,0.00,CLR,,0.00,WeatherDisplay:10.37,2013-01-23 14:27:00,
2013-01-23 08:28:00,9.2,7.3,30.16,SW,227,1.7,4.5,92,0.00,CLR,,0.00,WeatherDisplay:10.37,2013-01-23 14:28:00,
2013-01-23 08:32:00,9.3,7.4,30.16,West,272,3.6,6.9,92,0.00,CLR,,0.00,WeatherDisplay:10.37,2013-01-23 14:32:00,
2013-01-23 08:33:00,9.3,7.4,30.16,WSW,248,3.4,4.6,92,0.00,CLR,,0.00,WeatherDisplay:10.37,2013-01-23 14:33:00,
2013-01-23 08:37:00,9.4,7.5,30.16,West,274,2.0,3.5,92,0.00,CLR,,0.00,WeatherDisplay:10.37,2013-01-23 14:37:00,
2013-01-23 08:38:00,9.4,7.5,30.16,SW,224,1.5,4.6,92,0.00,CLR,,0.00,WeatherDisplay:10.37,2013-01-23 14:38:00,
2013-01-23 08:42:00,9.5,7.6,30.16,WSW,256,2.1,3.5,92,0.00,CLR,,0.00,WeatherDisplay:10.37,2013-01-23 14:42:00,
2013-01-23 08:43:00,9.5,7.6,30.16,SW,230,2.9,4.6,92,0.00,CLR,,0.00,WeatherDisplay:10.37,2013-01-23 14:43:00,
2013-01-23 08:47:00,9.6,7.7,30.16,WSW,251,4.3,9.2,92,0.00,CLR,,0.00,WeatherDisplay:10.37,2013-01-23 14:47:00,
2013-01-23 08:48:00,9.7,7.8,30.16,SSW,205,5.1,8.1,92,0.00,CLR,,0.00,WeatherDisplay:10.37,2013-01-23 14:48:00,
2013-01-23 08:53:00,9.6,8.0,30.16,WSW,244,3.0,4.6,93,0.00,CLR,,0.00,WeatherDisplay:10.37,2013-01-23 14:53:00,
2013-01-23 08:58:00,9.8,8.4,30.16,South,181,0.0,0.0,94,0.00,CLR,,0.00,WeatherDisplay:10.37,2013-01-23 14:58:00,
2013-01-23 08:59:00,9.8,8.4,30.16,SW,220,2.9,5.8,94,0.00,CLR,,0.00,WeatherDisplay:10.37,2013-01-23 14:59:00,
2013-01-23 09:03:00,10.0,8.6,30.16,WSW,250,3.0,4.6,94,0.00,CLR,,0.00,WeatherDisplay:10.37,2013-01-23 15:03:00,
2013-01-23 09:04:00,9.8,8.4,30.16,SSW,205,3.5,4.6,94,0.00,CLR,,0.00,WeatherDisplay:10.37,2013-01-23 15:04:00,
2013-01-23 09:08:00,10.1,8.7,30.16,SW,232,5.1,8.1,94,0.00,CLR,,0.00,WeatherDisplay:10.37,2013-01-23 15:08:00,
2013-01-23 09:09:00,10.1,8.7,30.16,West,263,4.4,8.1,94,0.00,CLR,,0.00,WeatherDisplay:10.37,2013-01-23 15:09:00,
2013-01-23 09:13:00,10.2,8.8,30.15,SW,236,4.4,5.8,94,0.00,CLR,,0.00,WeatherDisplay:10.37,2013-01-23 15:13:00,
2013-01-23 09:14:00,10.2,8.8,30.15,SW,223,2.8,5.8,94,0.00,CLR,,0.00,WeatherDisplay:10.37,2013-01-23 15:14:00,
2013-01-23 09:18:00,10.4,9.0,30.15,WSW,258,4.1,6.9,94,0.00,CLR,,0.00,WeatherDisplay:10.37,2013-01-23 15:18:00,
2013-01-23 09:19:00,10.4,9.0,30.15,SW,216,4.1,5.8,94,0.00,CLR,,0.00,WeatherDisplay:10.37,2013-01-23 15:19:00,
2013-01-23 09:23:00,10.6,9.0,30.15,SSW,212,5.0,6.9,93,0.00,CLR,,0.00,WeatherDisplay:10.37,2013-01-23 15:23:00,
2013-01-23 09:24:00,10.5,8.9,30.15,WSW,237,4.7,6.9,93,0.00,CLR,,0.00,WeatherDisplay:10.37,2013-01-23 15:24:00,
2013-01-23 09:28:00,10.7,9.1,30.15,SW,227,4.6,6.9,93,0.00,CLR,,0.00,WeatherDisplay:10.37,2013-01-23 15:28:00,
2013-01-23 09:29:00,10.7,9.1,30.15,SW,220,3.7,6.9,93,0.00,CLR,,0.00,WeatherDisplay:10.37,2013-01-23 15:29:00,
2013-01-23 09:30:00,10.6,9.0,30.15,WSW,251,4.7,8.1,93,0.00,CLR,,0.00,WeatherDisplay:10.37,2013-01-23 15:30:00,
2013-01-23 09:33:00,10.8,9.2,30.15,SW,229,2.4,4.6,93,0.00,CLR,,0.00,WeatherDisplay:10.37,2013-01-23 15:33:00,
2013-01-23 09:34:00,10.8,9.2,30.15,WSW,253,2.8,5.2,93,0.00,CLR,,0.00,WeatherDisplay:10.37,2013-01-23 15:34:00,
2013-01-23 09:35:00,10.9,9.3,30.15,WSW,250,5.0,6.9,93,0.00,CLR,,0.00,WeatherDisplay:10.37,2013-01-23 15:35:00,
2013-01-23 09:38:00,11.0,9.1,30.15,SW,233,3.3,5.8,92,0.00,CLR,,0.00,WeatherDisplay:10.37,2013-01-23 15:38:00,
2013-01-23 09:39:00,10.8,8.9,30.15,West,260,3.6,5.8,92,0.00,CLR,,0.00,WeatherDisplay:10.37,2013-01-23 15:39:00,
2013-01-23 09:40:00,10.9,9.0,30.15,WSW,243,3.3,4.6,92,0.00,CLR,,0.00,WeatherDisplay:10.37,2013-01-23 15:40:00,
2013-01-23 09:43:00,11.1,9.2,30.15,SW,233,4.3,6.9,92,0.00,CLR,,0.00,WeatherDisplay:10.37,2013-01-23 15:43:00,
2013-01-23 09:44:00,11.1,9.2,30.15,WSW,246,3.8,6.9,92,0.00,CLR,,0.00,WeatherDisplay:10.37,2013-01-23 15:44:00,
2013-01-23 09:45:00,11.2,9.3,30.15,SW,230,4.1,6.9,92,0.00,CLR,,0.00,WeatherDisplay:10.37,2013-01-23 15:45:00,
2013-01-23 09:48:00,11.3,9.4,30.15,West,267,4.5,6.9,92,0.00,CLR,,0.00,WeatherDisplay:10.37,2013-01-23 15:48:00,
2013-01-23 09:49:00,11.3,9.4,30.15,WSW,239,4.5,6.9,92,0.00,CLR,,0.00,WeatherDisplay:10.37,2013-01-23 15:49:00,
2013-01-23 09:50:00,11.2,9.3,30.15,SSW,195,3.2,6.9,92,0.00,CLR,,0.00,WeatherDisplay:10.37,2013-01-23 15:50:00,
2013-01-23 09:54:00,11.4,9.5,30.15,SW,229,3.9,7.1,92,0.00,CLR,,0.00,WeatherDisplay:10.37,2013-01-23 15:54:00,
2013-01-23 09:55:00,11.4,9.5,30.15,SSW,195,7.1,9.2,92,0.00,CLR,,0.00,WeatherDisplay:10.37,2013-01-23 15:55:00,
2013-01-23 09:59:00,11.7,10.1,30.15,SW,229,5.3,6.9,93,0.00,CLR,,0.00,WeatherDisplay:10.37,2013-01-23 15:59:00,
2013-01-23 10:00:00,11.6,9.7,30.15,West,263,4.7,9.2,92,0.00,CLR,,0.00,WeatherDisplay:10.37,2013-01-23 16:00:00,
2013-01-23 10:04:00,11.7,10.1,30.15,WSW,250,4.6,8.1,93,0.00,CLR,,0.00,WeatherDisplay:10.37,2013-01-23 16:04:00,
2013-01-23 10:05:00,11.8,10.2,30.15,SSW,209,7.5,8.1,93,0.00,CLR,,0.00,WeatherDisplay:10.37,2013-01-23 16:05:00,
2013-01-23 10:06:00,11.7,10.1,30.15,SW,222,6.2,9.2,93,0.00,CLR,,0.00,WeatherDisplay:10.37,2013-01-23 16:06:00,
2013-01-23 10:09:00,11.8,10.2,30.15,WSW,244,5.5,6.9,93,0.00,CLR,,0.00,WeatherDisplay:10.37,2013-01-23 16:09:00,
2013-01-23 10:11:00,11.8,10.2,30.15,SW,223,5.6,8.1,93,0.00,CLR,,0.00,WeatherDisplay:10.37,2013-01-23 16:11:00,
2013-01-23 10:14:00,12.0,10.4,30.15,SSW,198,3.8,5.0,93,0.00,CLR,,0.00,WeatherDisplay:10.37,2013-01-23 16:14:00,
2013-01-23 10:16:00,12.0,10.4,30.15,SW,230,2.9,6.9,93,0.00,CLR,,0.00,WeatherDisplay:10.37,2013-01-23 16:16:00,
2013-01-23 10:19:00,12.2,10.6,30.15,WSW,240,2.4,4.6,93,0.00,CLR,,0.00,WeatherDisplay:10.37,2013-01-23 16:19:00,
2013-01-23 10:21:00,12.2,10.6,30.15,SW,234,6.2,9.2,93,0.00,CLR,,0.00,WeatherDisplay:10.37,2013-01-23 16:21:00,
2013-01-23 10:24:00,12.3,10.7,30.15,WSW,243,6.2,9.2,93,0.00,CLR,,0.00,WeatherDisplay:10.37,2013-01-23 16:24:00,
2013-01-23 10:26:00,12.5,10.9,30.15,WSW,246,5.4,8.1,93,0.00,CLR,,0.00,WeatherDisplay:10.37,2013-01-23 16:26:00,
2013-01-23 10:29:00,12.5,10.9,30.15,SW,236,4.5,7.0,93,0.00,CLR,,0.00,WeatherDisplay:10.37,2013-01-23 16:29:00,
2013-01-23 10:31:00,12.5,11.1,30.15,West,274,4.9,8.1,94,0.00,CLR,,0.00,WeatherDisplay:10.37,2013-01-23 16:31:00,
2013-01-23 10:32:00,12.6,11.2,30.15,West,268,5.1,6.9,94,0.00,CLR,,0.00,WeatherDisplay:10.37,2013-01-23 16:32:00,
2013-01-23 10:35:00,12.6,11.2,30.15,WSW,241,5.0,6.9,94,0.00,CLR,,0.00,WeatherDisplay:10.37,2013-01-23 16:35:00,
2013-01-23 10:36:00,12.5,11.3,30.15,SW,216,5.1,9.1,95,0.00,CLR,,0.00,WeatherDisplay:10.37,2013-01-23 16:36:00,
2013-01-23 10:37:00,12.4,11.2,30.15,SSW,208,6.6,8.1,95,0.00,CLR,,0.00,WeatherDisplay:10.37,2013-01-23 16:37:00,
2013-01-23 10:40:00,12.5,11.3,30.15,SW,224,2.9,6.9,95,0.00,CLR,,0.00,WeatherDisplay:10.37,2013-01-23 16:40:00,
2013-01-23 10:42:00,12.6,11.4,30.15,SW,217,1.9,8.1,95,0.00,CLR,,0.00,WeatherDisplay:10.37,2013-01-23 16:42:00,
2013-01-23 10:45:00,12.6,11.7,30.15,WSW,239,4.1,8.0,96,0.00,CLR,,0.00,WeatherDisplay:10.37,2013-01-23 16:45:00,
2013-01-23 10:47:00,12.6,11.7,30.14,WSW,256,4.2,9.2,96,0.00,CLR,,0.00,WeatherDisplay:10.37,2013-01-23 16:47:00,
2013-01-23 10:50:00,12.7,11.8,30.14,WSW,240,4.7,8.1,96,0.00,CLR,,0.00,WeatherDisplay:10.37,2013-01-23 16:50:00,
2013-01-23 10:51:00,12.7,11.8,30.14,West,260,5.0,8.1,96,0.00,CLR,,0.00,WeatherDisplay:10.37,2013-01-23 16:51:00,
2013-01-23 10:52:00,12.8,11.9,30.14,WSW,254,5.6,8.1,96,0.00,CLR,,0.00,WeatherDisplay:10.37,2013-01-23 16:52:00,
2013-01-23 10:55:00,12.7,11.8,30.14,SW,236,2.9,5.8,96,0.00,CLR,,0.00,WeatherDisplay:10.37,2013-01-23 16:55:00,
2013-01-23 10:56:00,12.9,12.0,30.14,West,267,3.8,5.8,96,0.00,CLR,,0.00,WeatherDisplay:10.37,2013-01-23 16:56:00,
2013-01-23 10:57:00,12.8,11.9,30.14,West,275,5.7,9.2,96,0.00,CLR,,0.00,WeatherDisplay:10.37,2013-01-23 16:57:00,
2013-01-23 11:00:00,12.9,12.0,30.14,WSW,246,4.3,6.9,96,0.00,CLR,,0.00,WeatherDisplay:10.37,2013-01-23 17:00:00,
2013-01-23 11:01:00,12.6,11.7,30.14,SW,219,5.9,8.1,96,0.00,CLR,,0.00,WeatherDisplay:10.37,2013-01-23 17:01:00,
2013-01-23 11:02:00,12.8,11.9,30.14,West,272,5.8,9.2,96,0.00,CLR,,0.00,WeatherDisplay:10.37,2013-01-23 17:02:00,
2013-01-23 11:05:00,12.8,11.9,30.13,WNW,287,4.8,8.1,96,0.00,CLR,,0.00,WeatherDisplay:10.37,2013-01-23 17:05:00,
2013-01-23 11:06:00,12.9,12.0,30.13,SW,215,4.1,6.9,96,0.00,CLR,,0.00,WeatherDisplay:10.37,2013-01-23 17:06:00,
2013-01-23 11:07:00,12.9,12.0,30.13,WSW,256,3.5,8.3,96,0.00,CLR,,0.00,WeatherDisplay:10.37,2013-01-23 17:07:00,
2013-01-23 11:10:00,13.0,12.1,30.13,SW,232,4.8,8.1,96,0.00,CLR,,0.00,WeatherDisplay:10.37,2013-01-23 17:10:00,
2013-01-23 11:11:00,13.0,12.1,30.13,WSW,243,5.4,8.1,96,0.00,CLR,,0.00,WeatherDisplay:10.37,2013-01-23 17:11:00,
2013-01-23 11:12:00,13.1,12.2,30.13,West,275,4.9,8.1,96,0.00,CLR,,0.00,WeatherDisplay:10.37,2013-01-23 17:12:00,
2013-01-23 11:15:00,13.1,12.2,30.13,West,260,5.2,8.1,96,0.00,CLR,,0.00,WeatherDisplay:10.37,2013-01-23 17:15:00,
2013-01-23 11:16:00,13.3,12.4,30.13,WSW,243,6.3,8.1,96,0.00,CLR,,0.00,WeatherDisplay:10.37,2013-01-23 17:16:00,
2013-01-23 11:17:00,13.3,12.4,30.13,SW,224,5.0,7.3,96,0.00,CLR,,0.00,WeatherDisplay:10.37,2013-01-23 17:17:00,
2013-01-23 11:20:00,13.4,12.5,30.12,WNW,289,4.8,8.1,96,0.00,CLR,,0.00,WeatherDisplay:10.37,2013-01-23 17:20:00,
2013-01-23 11:21:00,13.2,12.3,30.12,West,264,5.4,8.1,96,0.00,CLR,,0.00,WeatherDisplay:10.37,2013-01-23 17:21:00,
2013-01-23 11:22:00,13.3,12.4,30.12,SW,223,4.2,7.5,96,0.00,CLR,,0.00,WeatherDisplay:10.37,2013-01-23 17:22:00,
2013-01-23 11:25:00,13.4,12.5,30.12,SW,234,4.7,6.9,96,0.00,CLR,,0.00,WeatherDisplay:10.37,2013-01-23 17:25:00,
2013-01-23 11:26:00,13.4,12.5,30.12,SW,229,5.2,8.3,96,0.00,CLR,,0.00,WeatherDisplay:10.37,2013-01-23 17:26:00,
2013-01-23 11:27:00,13.5,12.6,30.12,SW,219,5.7,8.1,96,0.00,CLR,,0.00,WeatherDisplay:10.37,2013-01-23 17:27:00,
2013-01-23 11:28:00,13.6,12.7,30.12,WSW,237,5.2,8.1,96,0.00,CLR,,0.00,WeatherDisplay:10.37,2013-01-23 17:28:00,
2013-01-23 11:30:00,13.7,12.8,30.11,WSW,240,6.0,10.4,96,0.00,CLR,,0.00,WeatherDisplay:10.37,2013-01-23 17:30:00,
2013-01-23 11:31:00,13.9,13.0,30.12,WNW,282,5.5,8.2,96,0.00,CLR,,0.00,WeatherDisplay:10.37,2013-01-23 17:31:00,
2013-01-23 11:33:00,13.8,12.9,30.12,WNW,287,6.6,9.2,96,0.00,CLR,,0.00,WeatherDisplay:10.37,2013-01-23 17:33:00,
2013-01-23 11:36:00,13.8,12.9,30.11,SW,227,6.2,8.1,96,0.00,CLR,,0.00,WeatherDisplay:10.37,2013-01-23 17:36:00,
2013-01-23 11:38:00,13.9,13.0,30.11,WSW,257,4.0,6.9,96,0.00,CLR,,0.00,WeatherDisplay:10.37,2013-01-23 17:38:00,
2013-01-23 11:41:00,14.1,13.2,30.11,SW,230,7.3,11.5,96,0.00,CLR,,0.00,WeatherDisplay:10.37,2013-01-23 17:41:00,
2013-01-23 11:42:00,14.1,13.2,30.11,SW,223,5.1,7.8,96,0.00,CLR,,0.00,WeatherDisplay:10.37,2013-01-23 17:42:00,
2013-01-23 11:43:00,14.2,13.3,30.11,WSW,246,5.8,8.1,96,0.00,CLR,,0.00,WeatherDisplay:10.37,2013-01-23 17:43:00,
2013-01-23 11:45:00,14.2,13.3,30.11,SW,217,5.5,9.2,96,0.00,CLR,,0.00,WeatherDisplay:10.37,2013-01-23 17:45:00,
2013-01-23 11:46:00,14.3,13.4,30.10,SW,227,5.0,8.1,96,0.00,CLR,,0.00,WeatherDisplay:10.37,2013-01-23 17:46:00,
2013-01-23 11:47:00,14.4,13.5,30.10,SW,224,4.7,7.1,96,0.00,CLR,,0.00,WeatherDisplay:10.37,2013-01-23 17:47:00,
2013-01-23 11:48:00,14.3,13.4,30.10,SW,223,6.1,9.2,96,0.00,CLR,,0.00,WeatherDisplay:10.37,2013-01-23 17:48:00,
2013-01-23 11:50:00,14.4,13.5,30.10,WSW,246,5.8,11.5,96,0.00,CLR,,0.00,WeatherDisplay:10.37,2013-01-23 17:50:00,
2013-01-23 11:51:00,14.4,13.5,30.10,NW,308,6.7,11.5,96,0.00,CLR,,0.00,WeatherDisplay:10.37,2013-01-23 17:51:00,
2013-01-23 11:52:00,14.4,13.5,30.10,WSW,243,5.9,9.2,96,0.00,CLR,,0.00,WeatherDisplay:10.37,2013-01-23 17:52:00,
2013-01-23 11:53:00,14.5,13.6,30.10,SW,227,5.5,8.1,96,0.00,CLR,,0.00,WeatherDisplay:10.37,2013-01-23 17:53:00,
2013-01-23 11:55:00,14.5,13.6,30.10,WSW,248,6.3,9.2,96,0.00,CLR,,0.00,WeatherDisplay:10.37,2013-01-23 17:55:00,
2013-01-23 11:56:00,14.5,13.6,30.09,SSW,210,8.2,10.4,96,0.00,CLR,,0.00,WeatherDisplay:10.37,2013-01-23 17:56:00,
2013-01-23 11:57:00,14.6,13.7,30.09,SW,219,5.7,10.4,96,0.00,CLR,,0.00,WeatherDisplay:10.37,2013-01-23 17:57:00,
2013-01-23 11:58:00,14.6,13.7,30.09,WSW,241,5.9,9.2,96,0.00,CLR,,0.00,WeatherDisplay:10.37,2013-01-23 17:58:00,
2013-01-23 12:00:00,14.8,13.9,30.09,WSW,244,7.3,9.2,96,0.00,CLR,,0.00,WeatherDisplay:10.37,2013-01-23 18:00:00,
2013-01-23 12:01:00,14.8,13.9,30.09,WSW,240,7.7,11.5,96,0.00,CLR,,0.00,WeatherDisplay:10.37,2013-01-23 18:01:00,
2013-01-23 12:02:00,14.7,13.8,30.09,West,270,6.0,11.5,96,0.00,CLR,,0.00,WeatherDisplay:10.37,2013-01-23 18:02:00,
2013-01-23 12:05:00,14.9,14.0,30.09,SW,217,5.5,9.2,96,0.00,CLR,,0.00,WeatherDisplay:10.37,2013-01-23 18:05:00,
2013-01-23 12:07:00,15.1,14.2,30.09,West,260,7.7,9.2,96,0.00,CLR,,0.00,WeatherDisplay:10.37,2013-01-23 18:07:00,
2013-01-23 12:10:00,15.0,14.1,30.08,SW,224,5.5,9.2,96,0.00,CLR,,0.00,WeatherDisplay:10.37,2013-01-23 18:10:00,
2013-01-23 12:12:00,15.2,14.3,30.08,WSW,248,5.9,9.3,96,0.00,CLR,,0.00,WeatherDisplay:10.37,2013-01-23 18:12:00,
2013-01-23 12:15:00,15.3,14.4,30.08,West,261,6.6,9.2,96,0.00,CLR,,0.00,WeatherDisplay:10.37,2013-01-23 18:15:00,
2013-01-23 12:17:00,15.2,14.3,30.08,West,261,6.5,9.4,96,0.00,CLR,,0.00,WeatherDisplay:10.37,2013-01-23 18:17:00,
2013-01-23 12:20:00,15.3,14.1,30.08,SW,233,6.3,9.2,95,0.00,CLR,,0.00,WeatherDisplay:10.37,2013-01-23 18:20:00,
2013-01-23 12:22:00,15.2,14.3,30.08,WSW,239,6.3,8.1,96,0.00,CLR,,0.00,WeatherDisplay:10.37,2013-01-23 18:22:00,
2013-01-23 12:25:00,15.3,14.1,30.07,SW,227,6.9,13.8,95,0.00,CLR,,0.00,WeatherDisplay:10.37,2013-01-23 18:25:00,
2013-01-23 12:27:00,15.4,14.2,30.07,WSW,250,7.7,10.4,95,0.00,CLR,,0.00,WeatherDisplay:10.37,2013-01-23 18:27:00,
2013-01-23 12:28:00,15.4,14.2,30.07,WSW,241,7.6,10.4,95,0.00,CLR,,0.00,WeatherDisplay:10.37,2013-01-23 18:28:00,
2013-01-23 12:30:00,15.5,14.3,30.06,WSW,247,8.9,11.5,95,0.00,CLR,,0.00,WeatherDisplay:10.37,2013-01-23 18:30:00,
2013-01-23 12:31:00,15.5,14.3,30.06,WSW,247,9.1,12.7,95,0.00,CLR,,0.00,WeatherDisplay:10.37,2013-01-23 18:31:00,
2013-01-23 12:33:00,15.6,14.4,30.06,WSW,253,6.5,9.2,95,0.00,CLR,,0.00,WeatherDisplay:10.37,2013-01-23 18:33:00,
2013-01-23 12:35:00,15.7,14.5,30.06,WSW,257,6.1,6.9,95,0.00,CLR,,0.00,WeatherDisplay:10.37,2013-01-23 18:35:00,
2013-01-23 12:36:00,15.8,14.6,30.06,SW,236,6.4,9.4,95,0.00,CLR,,0.00,WeatherDisplay:10.37,2013-01-23 18:36:00,
2013-01-23 12:38:00,15.8,14.6,30.06,West,263,5.9,10.4,95,0.00,CLR,,0.00,WeatherDisplay:10.37,2013-01-23 18:38:00,
2013-01-23 12:39:00,15.9,14.7,30.06,SW,229,4.7,11.5,95,0.00,CLR,,0.00,WeatherDisplay:10.37,2013-01-23 18:39:00,
2013-01-23 12:40:00,15.8,14.6,30.06,WSW,254,4.3,6.9,95,0.00,CLR,,0.00,WeatherDisplay:10.37,2013-01-23 18:40:00,
2013-01-23 12:41:00,16.0,14.8,30.06,SW,223,4.7,8.2,95,0.00,CLR,,0.00,WeatherDisplay:10.37,2013-01-23 18:41:00,
2013-01-23 12:43:00,16.0,14.8,30.06,West,275,6.9,10.4,95,0.00,CLR,,0.00,WeatherDisplay:10.37,2013-01-23 18:43:00,
2013-01-23 12:44:00,16.0,14.6,30.06,SW,236,6.4,10.4,94,0.00,CLR,,0.00,WeatherDisplay:10.37,2013-01-23 18:44:00,
2013-01-23 12:46:00,16.0,14.6,30.06,WNW,287,3.5,4.7,94,0.00,CLR,,0.00,WeatherDisplay:10.37,2013-01-23 18:46:00,
2013-01-23 12:49:00,16.1,14.7,30.06,WNW,282,6.5,9.2,94,0.00,CLR,,0.00,WeatherDisplay:10.37,2013-01-23 18:49:00,
2013-01-23 12:51:00,16.1,14.4,30.06,WNW,287,6.5,11.5,93,0.00,CLR,,0.00,WeatherDisplay:10.37,2013-01-23 18:51:00,
2013-01-23 12:54:00,16.1,14.2,30.06,SW,215,6.0,10.4,92,0.00,CLR,,0.00,WeatherDisplay:10.37,2013-01-23 18:54:00,
2013-01-23 12:55:00,16.0,14.1,30.06,WSW,254,6.3,8.1,92,0.00,CLR,,0.00,WeatherDisplay:10.37,2013-01-23 18:55:00,
2013-01-23 12:56:00,16.1,14.2,30.05,WSW,246,4.7,9.2,92,0.00,CLR,,0.00,WeatherDisplay:10.37,2013-01-23 18:56:00,
2013-01-23 12:59:00,16.2,14.3,30.06,WSW,241,7.3,13.1,92,0.00,CLR,,0.00,WeatherDisplay:10.37,2013-01-23 18:59:00,
2013-01-23 13:00:00,16.1,13.9,30.06,WSW,257,7.0,16.1,91,0.00,CLR,,0.00,WeatherDisplay:10.37,2013-01-23 19:00:00,
2013-01-23 13:01:00,16.2,14.0,30.06,WSW,243,5.4,10.4,91,0.00,CLR,,0.00,WeatherDisplay:10.37,2013-01-23 19:01:00,
2013-01-23 13:04:00,16.2,13.8,30.06,West,272,7.9,9.2,90,0.00,CLR,,0.00,WeatherDisplay:10.37,2013-01-23 19:04:00,
2013-01-23 13:05:00,16.2,13.8,30.06,WNW,289,7.6,11.5,90,0.00,CLR,,0.00,WeatherDisplay:10.37,2013-01-23 19:05:00,
2013-01-23 13:06:00,16.2,13.5,30.05,West,268,8.4,13.8,89,0.00,CLR,,0.00,WeatherDisplay:10.37,2013-01-23 19:06:00,
2013-01-23 13:07:00,16.2,13.5,30.05,West,267,8.3,13.8,89,0.00,CLR,,0.00,WeatherDisplay:10.37,2013-01-23 19:07:00,
2013-01-23 13:09:00,16.2,13.5,30.06,WSW,250,4.2,9.2,89,0.00,CLR,,0.00,WeatherDisplay:10.37,2013-01-23 19:09:00,
2013-01-23 13:10:00,16.2,13.5,30.06,West,272,5.3,8.1,89,0.00,CLR,,0.00,WeatherDisplay:10.37,2013-01-23 19:10:00,
2013-01-23 13:11:00,16.3,13.6,30.06,WSW,254,3.5,10.5,89,0.00,CLR,,0.00,WeatherDisplay:10.37,2013-01-23 19:11:00,
2013-01-23 13:12:00,16.2,13.5,30.06,West,264,5.0,8.8,89,0.00,CLR,,0.00,WeatherDisplay:10.37,2013-01-23 19:12:00,
2013-01-23 13:14:00,16.3,13.6,30.05,West,260,5.6,9.2,89,0.00,CLR,,0.00,WeatherDisplay:10.37,2013-01-23 19:14:00,
2013-01-23 13:16:00,16.3,13.6,30.05,WSW,257,5.8,9.2,89,0.00,CLR,,0.00,WeatherDisplay:10.37,2013-01-23 19:16:00,
2013-01-23 13:17:00,16.4,13.7,30.05,West,264,5.8,9.4,89,0.00,CLR,,0.00,WeatherDisplay:10.37,2013-01-23 19:17:00,
2013-01-23 13:19:00,16.4,13.5,30.05,SW,222,8.1,12.7,88,0.00,CLR,,0.00,WeatherDisplay:10.37,2013-01-23 19:19:00,
2013-01-23 13:21:00,16.5,13.8,30.05,WNW,289,5.2,9.2,89,0.00,CLR,,0.00,WeatherDisplay:10.37,2013-01-23 19:21:00,
2013-01-23 13:22:00,16.4,13.7,30.05,West,261,6.8,11.6,89,0.00,CLR,,0.00,WeatherDisplay:10.37,2013-01-23 19:22:00,
2013-01-23 13:25:00,16.5,14.1,30.05,WSW,256,5.6,10.1,90,0.00,CLR,,0.00,WeatherDisplay:10.37,2013-01-23 19:25:00,
2013-01-23 13:26:00,16.5,13.8,30.05,WSW,251,6.9,10.4,89,0.00,CLR,,0.00,WeatherDisplay:10.37,2013-01-23 19:26:00,
2013-01-23 13:27:00,16.6,13.9,30.05,WNW,282,7.8,9.2,89,0.00,CLR,,0.00,WeatherDisplay:10.37,2013-01-23 19:27:00,
2013-01-23 13:30:00,16.5,13.8,30.05,WNW,292,7.3,11.5,89,0.00,CLR,,0.00,WeatherDisplay:10.37,2013-01-23 19:30:00,
2013-01-23 13:31:00,16.5,13.8,30.05,South,185,6.0,10.4,89,0.00,CLR,,0.00,WeatherDisplay:10.37,2013-01-23 19:31:00,
2013-01-23 13:32:00,16.5,13.8,30.05,WNW,295,6.0,9.2,89,0.00,CLR,,0.00,WeatherDisplay:10.37,2013-01-23 19:32:00,
2013-01-23 13:35:00,16.5,13.8,30.05,WSW,244,6.7,10.4,89,0.00,CLR,,0.00,WeatherDisplay:10.37,2013-01-23 19:35:00,
2013-01-23 13:36:00,16.5,13.8,30.04,West,265,6.5,10.4,89,0.00,CLR,,0.00,WeatherDisplay:10.37,2013-01-23 19:36:00,
2013-01-23 13:37:00,16.5,13.8,30.04,West,267,7.4,12.9,89,0.00,CLR,,0.00,WeatherDisplay:10.37,2013-01-23 19:37:00,
2013-01-23 13:40:00,16.4,14.0,30.04,WSW,246,7.0,11.5,90,0.00,CLR,,0.00,WeatherDisplay:10.37,2013-01-23 19:40:00,
2013-01-23 13:41:00,16.4,14.0,30.04,West,270,8.2,16.1,90,0.00,CLR,,0.00,WeatherDisplay:10.37,2013-01-23 19:41:00,
2013-01-23 13:42:00,16.3,14.1,30.04,WSW,251,9.1,16.1,91,0.00,CLR,,0.00,WeatherDisplay:10.37,2013-01-23 19:42:00,
2013-01-23 13:43:00,16.2,14.0,30.04,WSW,258,9.4,13.8,91,0.00,CLR,,0.00,WeatherDisplay:10.37,2013-01-23 19:43:00,
2013-01-23 13:45:00,16.3,14.4,30.04,West,280,8.4,12.7,92,0.00,CLR,,0.00,WeatherDisplay:10.37,2013-01-23 19:45:00,
2013-01-23 13:47:00,16.2,14.5,30.04,WSW,240,7.7,13.8,93,0.00,CLR,,0.00,WeatherDisplay:10.37,2013-01-23 19:47:00,
2013-01-23 13:48:00,16.2,14.8,30.04,West,268,8.2,11.5,94,0.00,CLR,,0.00,WeatherDisplay:10.37,2013-01-23 19:48:00,
2013-01-23 13:50:00,16.2,14.8,30.04,West,277,6.3,10.4,94,0.00,CLR,,0.00,WeatherDisplay:10.37,2013-01-23 19:50:00,
2013-01-23 13:52:00,16.2,14.8,30.04,NW,325,6.0,11.5,94,0.00,CLR,,0.00,WeatherDisplay:10.37,2013-01-23 19:52:00,
2013-01-23 13:53:00,16.2,14.8,30.05,WSW,258,6.6,10.1,94,0.00,CLR,,0.00,WeatherDisplay:10.37,2013-01-23 19:53:00,
2013-01-23 13:56:00,16.2,14.8,30.04,WSW,246,6.9,11.5,94,0.00,CLR,,0.00,WeatherDisplay:10.37,2013-01-23 19:56:00,
2013-01-23 13:57:00,16.4,15.0,30.04,WSW,246,5.1,10.4,94,0.00,CLR,,0.00,WeatherDisplay:10.37,2013-01-23 19:57:00,
2013-01-23 13:58:00,16.4,15.0,30.04,West,267,5.7,9.7,94,0.00,CLR,,0.00,WeatherDisplay:10.37,2013-01-23 19:58:00,
2013-01-23 14:01:00,16.5,14.8,30.04,WNW,298,5.4,9.2,93,0.00,CLR,,0.00,WeatherDisplay:10.37,2013-01-23 20:01:00,
2013-01-23 14:02:00,16.5,14.8,30.04,WSW,241,4.6,8.1,93,0.00,CLR,,0.00,WeatherDisplay:10.37,2013-01-23 20:02:00,
2013-01-23 14:03:00,16.5,14.8,30.04,West,281,6.5,8.2,93,0.00,CLR,,0.00,WeatherDisplay:10.37,2013-01-23 20:03:00,
2013-01-23 14:06:00,16.4,14.5,30.04,WSW,240,5.6,15.0,92,0.00,CLR,,0.00,WeatherDisplay:10.37,2013-01-23 20:06:00,
2013-01-23 14:07:00,16.5,14.8,30.04,West,268,5.9,8.1,93,0.00,CLR,,0.00,WeatherDisplay:10.37,2013-01-23 20:07:00,
2013-01-23 14:08:00,16.6,14.9,30.04,West,268,7.4,10.4,93,0.00,CLR,,0.00,WeatherDisplay:10.37,2013-01-23 20:08:00,
2013-01-23 14:11:00,16.6,14.7,30.04,WNW,285,6.6,10.4,92,0.00,CLR,,0.00,WeatherDisplay:10.37,2013-01-23 20:11:00,
2013-01-23 14:12:00,16.8,14.6,30.04,WSW,240,6.7,9.2,91,0.00,CLR,,0.00,WeatherDisplay:10.37,2013-01-23 20:12:00,
2013-01-23 14:13:00,16.9,14.5,30.04,WSW,248,9.4,10.4,90,0.00,CLR,,0.00,WeatherDisplay:10.37,2013-01-23 20:13:00,
2013-01-23 14:17:00,17.0,14.3,30.04,West,267,8.6,9.2,89,0.00,CLR,,0.00,WeatherDisplay:10.37,2013-01-23 20:17:00,
2013-01-23 14:18:00,17.0,14.3,30.04,West,278,8.8,12.7,89,0.00,CLR,,0.00,WeatherDisplay:10.37,2013-01-23 20:18:00,
2013-01-23 14:22:00,17.2,14.3,30.04,WSW,246,4.9,10.4,88,0.00,CLR,,0.00,WeatherDisplay:10.37,2013-01-23 20:22:00,
2013-01-23 14:23:00,17.2,14.3,30.04,West,281,5.2,8.1,88,0.00,CLR,,0.00,WeatherDisplay:10.37,2013-01-23 20:23:00,
2013-01-23 14:27:00,17.1,14.2,30.03,NW,305,5.6,8.1,88,0.00,CLR,,0.00,WeatherDisplay:10.37,2013-01-23 20:27:00,
2013-01-23 14:28:00,17.1,14.2,30.03,West,277,4.4,8.1,88,0.00,CLR,,0.00,WeatherDisplay:10.37,2013-01-23 20:28:00,
2013-01-23 14:32:00,17.0,13.8,30.04,West,275,5.7,8.1,87,0.00,CLR,,0.00,WeatherDisplay:10.37,2013-01-23 20:32:00,
2013-01-23 14:33:00,16.8,13.6,30.03,West,265,4.7,8.1,87,0.00,CLR,,0.00,WeatherDisplay:10.37,2013-01-23 20:33:00,
2013-01-23 14:37:00,16.9,14.0,30.03,NNW,340,5.8,10.4,88,0.00,CLR,,0.00,WeatherDisplay:10.37,2013-01-23 20:37:00,
2013-01-23 14:38:00,16.8,13.9,30.03,WNW,298,4.7,10.4,88,0.00,CLR,,0.00,WeatherDisplay:10.37,2013-01-23 20:38:00,
2013-01-23 14:42:00,16.8,13.9,30.03,WNW,282,5.2,10.7,88,0.00,CLR,,0.00,WeatherDisplay:10.37,2013-01-23 20:42:00,
2013-01-23 14:43:00,16.8,13.6,30.03,West,264,6.7,9.2,87,0.00,CLR,,0.00,WeatherDisplay:10.37,2013-01-23 20:43:00,
2013-01-23 14:44:00,16.6,13.4,30.03,West,278,6.5,10.4,87,0.00,CLR,,0.00,WeatherDisplay:10.37,2013-01-23 20:44:00,
2013-01-23 14:47:00,16.8,13.6,30.03,NW,312,8.1,12.7,87,0.00,CLR,,0.00,WeatherDisplay:10.37,2013-01-23 20:47:00,
2013-01-23 14:48:00,16.8,13.6,30.03,West,281,7.8,12.7,87,0.00,CLR,,0.00,WeatherDisplay:10.37,2013-01-23 20:48:00,
2013-01-23 14:49:00,16.7,13.5,30.03,WNW,282,7.8,13.8,87,0.00,CLR,,0.00,WeatherDisplay:10.37,2013-01-23 20:49:00,
2013-01-23 14:53:00,16.7,13.8,30.04,NW,311,7.5,10.4,88,0.00,CLR,,0.00,WeatherDisplay:10.37,2013-01-23 20:53:00,
2013-01-23 14:54:00,16.6,13.9,30.04,WNW,295,5.7,8.1,89,0.00,CLR,,0.00,WeatherDisplay:10.37,2013-01-23 20:54:00,
2013-01-23 14:58:00,16.4,14.0,30.04,NW,315,3.9,5.8,90,0.00,CLR,,0.00,WeatherDisplay:10.37,2013-01-23 20:58:00,
2013-01-23 14:59:00,16.4,14.0,30.04,WSW,250,5.9,9.2,90,0.00,CLR,,0.00,WeatherDisplay:10.37,2013-01-23 20:59:00,
2013-01-23 15:03:00,16.3,13.9,30.04,NW,319,4.1,6.9,90,0.00,CLR,,0.00,WeatherDisplay:10.37,2013-01-23 21:03:00,
2013-01-23 15:04:00,16.3,13.9,30.04,WSW,254,4.8,9.2,90,0.00,CLR,,0.00,WeatherDisplay:10.37,2013-01-23 21:04:00,
2013-01-23 15:08:00,16.4,14.0,30.05,WNW,288,6.5,9.2,90,0.00,CLR,,0.00,WeatherDisplay:10.37,2013-01-23 21:08:00,
2013-01-23 15:09:00,16.2,14.0,30.05,WNW,292,5.7,8.1,91,0.00,CLR,,0.00,WeatherDisplay:10.37,2013-01-23 21:09:00,
2013-01-23 15:13:00,16.3,14.4,30.05,NW,315,5.5,8.1,92,0.00,CLR,,0.00,WeatherDisplay:10.37,2013-01-23 21:13:00,
2013-01-23 15:14:00,16.2,14.3,30.05,WSW,253,5.3,8.1,92,0.00,CLR,,0.00,WeatherDisplay:10.37,2013-01-23 21:14:00,
2013-01-23 15:18:00,16.1,14.2,30.05,West,267,5.0,10.4,92,0.00,CLR,,0.00,WeatherDisplay:10.37,2013-01-23 21:18:00,
2013-01-23 15:19:00,16.2,14.5,30.05,NW,308,5.2,10.4,93,0.00,CLR,,0.00,WeatherDisplay:10.37,2013-01-23 21:19:00,
2013-01-23 15:23:00,16.2,14.5,30.05,West,274,3.5,8.1,93,0.00,CLR,,0.00,WeatherDisplay:10.37,2013-01-23 21:23:00,
2013-01-23 15:24:00,16.2,14.5,30.05,WNW,301,3.3,5.8,93,0.00,CLR,,0.00,WeatherDisplay:10.37,2013-01-23 21:24:00,
2013-01-23 15:28:00,16.3,14.6,30.05,West,271,4.4,6.6,93,0.00,CLR,,0.00,WeatherDisplay:10.37,2013-01-23 21:28:00,
2013-01-23 15:29:00,16.2,14.5,30.05,WNW,294,4.7,5.8,93,0.00,CLR,,0.00,WeatherDisplay:10.37,2013-01-23 21:29:00,
2013-01-23 15:30:00,16.4,14.7,30.05,NW,305,4.6,6.9,93,0.00,CLR,,0.00,WeatherDisplay:10.37,2013-01-23 21:30:00,
2013-01-23 15:34:00,16.3,14.4,30.05,NNW,337,3.1,5.8,92,0.00,CLR,,0.00,WeatherDisplay:10.37,2013-01-23 21:34:00,
2013-01-23 15:35:00,16.3,14.4,30.05,NW,309,4.5,7.3,92,0.00,CLR,,0.00,WeatherDisplay:10.37,2013-01-23 21:35:00,
2013-01-23 15:39:00,16.4,14.7,30.05,WNW,284,4.4,6.3,93,0.00,CLR,,0.00,WeatherDisplay:10.37,2013-01-23 21:39:00,
2013-01-23 15:40:00,16.4,14.7,30.05,West,275,5.4,8.1,93,0.00,CLR,,0.00,WeatherDisplay:10.37,2013-01-23 21:40:00,
2013-01-23 15:44:00,16.4,14.7,30.05,SW,222,3.1,5.8,93,0.00,CLR,,0.00,WeatherDisplay:10.37,2013-01-23 21:44:00,
2013-01-23 15:45:00,16.5,14.8,30.05,WNW,288,4.8,5.8,93,0.00,CLR,,0.00,WeatherDisplay:10.37,2013-01-23 21:45:00,
2013-01-23 15:49:00,16.5,14.6,30.05,West,277,5.6,6.9,92,0.00,CLR,,0.00,WeatherDisplay:10.37,2013-01-23 21:49:00,
2013-01-23 15:50:00,16.4,14.5,30.05,WNW,291,4.5,8.1,92,0.00,CLR,,0.00,WeatherDisplay:10.37,2013-01-23 21:50:00,
2013-01-23 15:54:00,16.5,14.6,30.05,West,265,4.7,9.2,92,0.00,CLR,,0.00,WeatherDisplay:10.37,2013-01-23 21:54:00,
2013-01-23 15:55:00,16.5,14.6,30.05,WNW,296,6.4,8.1,92,0.00,CLR,,0.00,WeatherDisplay:10.37,2013-01-23 21:55:00,
2013-01-23 15:56:00,16.4,14.5,30.05,WSW,257,5.0,9.2,92,0.00,CLR,,0.00,WeatherDisplay:10.37,2013-01-23 21:56:00,
2013-01-23 15:59:00,16.4,14.5,30.05,West,281,2.2,5.8,92,0.00,CLR,,0.00,WeatherDisplay:10.37,2013-01-23 21:59:00,
2013-01-23 16:00:00,16.4,14.5,30.05,WNW,285,2.5,3.5,92,0.00,CLR,,0.00,WeatherDisplay:10.37,2013-01-23 22:00:00,
2013-01-23 16:01:00,16.3,14.4,30.05,West,271,2.1,3.5,92,0.00,CLR,,0.00,WeatherDisplay:10.37,2013-01-23 22:01:00,
2013-01-23 16:04:00,16.3,14.4,30.05,NW,315,5.5,10.4,92,0.00,CLR,,0.00,WeatherDisplay:10.37,2013-01-23 22:04:00,
2013-01-23 16:05:00,16.4,14.5,30.05,West,272,4.6,10.4,92,0.00,CLR,,0.00,WeatherDisplay:10.37,2013-01-23 22:05:00,
2013-01-23 16:06:00,16.3,14.4,30.05,NW,309,3.7,6.9,92,0.00,CLR,,0.00,WeatherDisplay:10.37,2013-01-23 22:06:00,
2013-01-23 16:09:00,16.4,14.5,30.05,WNW,294,5.2,6.9,92,0.00,CLR,,0.00,WeatherDisplay:10.37,2013-01-23 22:09:00,
2013-01-23 16:10:00,16.3,14.4,30.06,WNW,291,5.2,6.9,92,0.00,CLR,,0.00,WeatherDisplay:10.37,2013-01-23 22:10:00,
2013-01-23 16:11:00,16.3,14.4,30.06,WNW,294,6.3,8.1,92,0.00,CLR,,0.00,WeatherDisplay:10.37,2013-01-23 22:11:00,
2013-01-23 16:14:00,16.3,14.4,30.06,WNW,282,3.6,6.9,92,0.00,CLR,,0.00,WeatherDisplay:10.37,2013-01-23 22:14:00,
2013-01-23 16:15:00,16.2,14.3,30.06,NW,306,4.8,8.1,92,0.00,CLR,,0.00,WeatherDisplay:10.37,2013-01-23 22:15:00,
2013-01-23 16:16:00,16.3,14.4,30.06,West,275,2.9,8.1,92,0.00,CLR,,0.00,WeatherDisplay:10.37,2013-01-23 22:16:00,
2013-01-23 16:19:00,16.2,14.5,30.06,WNW,287,5.4,8.1,93,0.00,CLR,,0.00,WeatherDisplay:10.37,2013-01-23 22:19:00,
2013-01-23 16:20:00,16.3,14.6,30.06,NW,320,4.6,5.8,93,0.00,CLR,,0.00,WeatherDisplay:10.37,2013-01-23 22:20:00,
2013-01-23 16:21:00,16.1,14.4,30.06,NW,320,4.4,5.8,93,0.00,CLR,,0.00,WeatherDisplay:10.37,2013-01-23 22:21:00,
2013-01-23 16:24:00,16.1,14.4,30.06,NW,304,3.1,5.8,93,0.00,CLR,,0.00,WeatherDisplay:10.37,2013-01-23 22:24:00,
2013-01-23 16:25:00,16.3,14.6,30.06,West,281,3.6,8.1,93,0.00,CLR,,0.00,WeatherDisplay:10.37,2013-01-23 22:25:00,
2013-01-23 16:26:00,16.1,14.4,30.06,WNW,292,5.1,8.1,93,0.00,CLR,,0.00,WeatherDisplay:10.37,2013-01-23 22:26:00,
2013-01-23 16:27:00,16.1,14.4,30.06,NW,320,5.4,8.1,93,0.00,CLR,,0.00,WeatherDisplay:10.37,2013-01-23 22:27:00,
2013-01-23 16:30:00,16.1,14.7,30.06,WNW,294,6.0,8.1,94,0.00,CLR,,0.00,WeatherDisplay:10.37,2013-01-23 22:30:00,
2013-01-23 16:31:00,16.1,14.7,30.06,NW,306,4.4,8.1,94,0.00,CLR,,0.00,WeatherDisplay:10.37,2013-01-23 22:31:00,
2013-01-23 16:32:00,16.1,14.7,30.06,WNW,296,4.5,5.7,94,0.00,CLR,,0.00,WeatherDisplay:10.37,2013-01-23 22:32:00,
2013-01-23 16:35:00,16.0,14.8,30.06,WNW,284,3.7,5.8,95,0.00,CLR,,0.00,WeatherDisplay:10.37,2013-01-23 22:35:00,
2013-01-23 16:36:00,15.9,14.7,30.06,West,270,2.6,5.8,95,0.00,CLR,,0.00,WeatherDisplay:10.37,2013-01-23 22:36:00,
2013-01-23 16:37:00,15.9,14.7,30.06,WNW,291,4.0,4.6,95,0.00,CLR,,0.00,WeatherDisplay:10.37,2013-01-23 22:37:00,
2013-01-23 16:40:00,15.9,14.7,30.06,NW,306,4.9,5.6,95,0.00,CLR,,0.00,WeatherDisplay:10.37,2013-01-23 22:40:00,
2013-01-23 16:41:00,16.0,14.8,30.06,WNW,288,5.3,8.1,95,0.00,CLR,,0.00,WeatherDisplay:10.37,2013-01-23 22:41:00,
2013-01-23 16:42:00,15.8,14.9,30.06,NW,326,4.6,6.9,96,0.00,CLR,,0.00,WeatherDisplay:10.37,2013-01-23 22:42:00,
2013-01-23 16:45:00,15.9,15.0,30.06,North,3,3.4,5.8,96,0.00,CLR,,0.00,WeatherDisplay:10.37,2013-01-23 22:45:00,
2013-01-23 16:46:00,15.9,15.0,30.06,SW,224,2.9,5.8,96,0.00,CLR,,0.00,WeatherDisplay:10.37,2013-01-23 22:46:00,
2013-01-23 16:48:00,15.8,14.9,30.06,NW,311,2.4,4.6,96,0.00,CLR,,0.00,WeatherDisplay:10.37,2013-01-23 22:48:00,
2013-01-23 16:50:00,15.9,15.0,30.06,WNW,288,3.8,6.6,96,0.00,CLR,,0.00,WeatherDisplay:10.37,2013-01-23 22:50:00,
2013-01-23 16:51:00,15.9,15.0,30.06,WNW,302,4.6,5.2,96,0.00,CLR,,0.00,WeatherDisplay:10.37,2013-01-23 22:51:00,
2013-01-23 16:53:00,15.8,14.9,30.06,WNW,299,2.4,4.6,96,0.00,CLR,,0.00,WeatherDisplay:10.37,2013-01-23 22:53:00,
2013-01-23 16:55:00,15.8,14.9,30.06,NW,304,4.7,6.9,96,0.00,CLR,,0.00,WeatherDisplay:10.37,2013-01-23 22:55:00,
2013-01-23 16:56:00,15.8,14.9,30.06,NNW,330,4.8,6.9,96,0.00,CLR,,0.00,WeatherDisplay:10.37,2013-01-23 22:56:00,
2013-01-23 16:57:00,15.7,14.8,30.06,NW,304,4.5,6.9,96,0.00,CLR,,0.00,WeatherDisplay:10.37,2013-01-23 22:57:00,
2013-01-23 16:58:00,15.8,14.9,30.06,NW,305,4.5,6.9,96,0.00,CLR,,0.00,WeatherDisplay:10.37,2013-01-23 22:58:00,
2013-01-23 17:01:00,15.7,14.8,30.06,NNW,343,3.5,5.8,96,0.00,CLR,,0.00,WeatherDisplay:10.37,2013-01-23 23:01:00,
2013-01-23 17:02:00,15.6,14.7,30.06,NNW,329,4.7,6.9,96,0.00,CLR,,0.00,WeatherDisplay:10.37,2013-01-23 23:02:00,
2013-01-23 17:04:00,15.7,14.8,30.07,WNW,289,3.7,9.2,96,0.00,CLR,,0.00,WeatherDisplay:10.37,2013-01-23 23:04:00,
2013-01-23 17:06:00,15.7,14.8,30.07,WNW,288,2.4,5.8,96,0.00,CLR,,0.00,WeatherDisplay:10.37,2013-01-23 23:06:00,
2013-01-23 17:07:00,15.6,14.7,30.07,NW,319,3.0,4.6,96,0.00,CLR,,0.00,WeatherDisplay:10.37,2013-01-23 23:07:00,
2013-01-23 17:09:00,15.7,14.8,30.08,West,280,6.2,8.1,96,0.00,CLR,,0.00,WeatherDisplay:10.37,2013-01-23 23:09:00,
2013-01-23 17:11:00,15.6,14.7,30.08,NNE,16,3.2,4.6,96,0.00,CLR,,0.00,WeatherDisplay:10.37,2013-01-23 23:11:00,
2013-01-23 17:12:00,15.6,14.7,30.08,NW,313,5.0,8.1,96,0.00,CLR,,0.00,WeatherDisplay:10.37,2013-01-23 23:12:00,
2013-01-23 17:14:00,15.5,14.6,30.08,WNW,291,3.7,4.4,96,0.00,CLR,,0.00,WeatherDisplay:10.37,2013-01-23 23:14:00,
2013-01-23 17:16:00,15.5,14.6,30.08,NW,315,5.1,6.9,96,0.00,CLR,,0.00,WeatherDisplay:10.37,2013-01-23 23:16:00,
2013-01-23 17:17:00,15.6,14.7,30.08,WNW,282,5.0,9.2,96,0.00,CLR,,0.00,WeatherDisplay:10.37,2013-01-23 23:17:00,
2013-01-23 17:19:00,15.6,14.7,30.08,NNW,330,6.0,11.9,96,0.00,CLR,,0.00,WeatherDisplay:10.37,2013-01-23 23:19:00,
2013-01-23 17:21:00,15.4,14.7,30.08,North,360,9.4,11.5,97,0.00,CLR,,0.00,WeatherDisplay:10.37,2013-01-23 23:21:00,
2013-01-23 17:22:00,15.4,14.7,30.08,WNW,285,10.5,15.0,97,0.00,CLR,,0.00,WeatherDisplay:10.37,2013-01-23 23:22:00,
2013-01-23 17:23:00,15.4,14.7,30.08,NNW,340,8.2,16.1,97,0.00,CLR,,0.00,WeatherDisplay:10.37,2013-01-23 23:23:00,
2013-01-23 17:24:00,15.2,14.3,30.09,NW,312,7.5,15.0,96,0.00,CLR,,0.00,WeatherDisplay:10.37,2013-01-23 23:24:00,
2013-01-23 17:26:00,15.0,14.1,30.09,NW,313,6.1,11.5,96,0.00,CLR,,0.00,WeatherDisplay:10.37,2013-01-23 23:26:00,
2013-01-23 17:27:00,15.0,14.1,30.09,North,7,6.6,10.4,96,0.00,CLR,,0.00,WeatherDisplay:10.37,2013-01-23 23:27:00,
2013-01-23 17:28:00,15.0,14.1,30.09,NNE,28,7.9,11.5,96,0.00,CLR,,0.00,WeatherDisplay:10.37,2013-01-23 23:28:00,
2013-01-23 17:30:00,14.9,14.0,30.09,NW,323,6.4,10.4,96,0.00,CLR,,0.00,WeatherDisplay:10.37,2013-01-23 23:30:00,
2013-01-23 17:31:00,14.7,13.8,30.09,NNW,328,5.2,6.9,96,0.00,CLR,,0.00,WeatherDisplay:10.37,2013-01-23 23:31:00,
2013-01-23 17:32:00,14.6,13.7,30.09,NW,304,4.3,7.0,96,0.00,CLR,,0.00,WeatherDisplay:10.37,2013-01-23 23:32:00,
2013-01-23 17:33:00,14.6,13.7,30.09,NW,309,8.9,16.1,96,0.00,CLR,,0.00,WeatherDisplay:10.37,2013-01-23 23:33:00,
2013-01-23 17:35:00,14.5,13.6,30.09,NW,315,8.6,11.7,96,0.00,CLR,,0.00,WeatherDisplay:10.37,2013-01-23 23:35:00,
2013-01-23 17:36:00,14.4,13.5,30.10,WNW,296,6.6,16.1,96,0.00,CLR,,0.00,WeatherDisplay:10.37,2013-01-23 23:36:00,
2013-01-23 17:37:00,14.3,13.4,30.09,WNW,294,6.8,11.5,96,0.00,CLR,,0.00,WeatherDisplay:10.37,2013-01-23 23:37:00,
2013-01-23 17:38:00,14.2,13.3,30.10,West,280,10.0,16.1,96,0.00,CLR,,0.00,WeatherDisplay:10.37,2013-01-23 23:38:00,
2013-01-23 17:40:00,14.2,13.5,30.10,NNW,333,5.9,12.7,97,0.00,CLR,,0.00,WeatherDisplay:10.37,2013-01-23 23:40:00,
2013-01-23 17:41:00,14.0,13.3,30.10,NW,306,6.7,9.2,97,0.00,CLR,,0.00,WeatherDisplay:10.37,2013-01-23 23:41:00,
2013-01-23 17:42:00,14.0,13.3,30.10,NNE,23,6.5,12.4,97,0.00,CLR,,0.00,WeatherDisplay:10.37,2013-01-23 23:42:00,
2013-01-23 17:43:00,14.1,13.4,30.10,North,360,6.0,8.1,97,0.00,CLR,,0.00,WeatherDisplay:10.37,2013-01-23 23:43:00,
2013-01-23 17:45:00,13.9,13.2,30.10,NW,320,3.8,8.1,97,0.00,CLR,,0.00,WeatherDisplay:10.37,2013-01-23 23:45:00,
2013-01-23 17:46:00,13.8,13.1,30.10,NW,304,5.5,9.9,97,0.00,CLR,,0.00,WeatherDisplay:10.37,2013-01-23 23:46:00,
2013-01-23 17:47:00,13.7,13.0,30.10,North,349,5.3,10.4,97,0.00,CLR,,0.00,WeatherDisplay:10.37,2013-01-23 23:47:00,
2013-01-23 17:48:00,13.7,13.0,30.10,NNW,328,4.9,10.4,97,0.00,CLR,,0.00,WeatherDisplay:10.37,2013-01-23 23:48:00,
2013-01-23 17:50:00,13.6,12.9,30.10,WNW,294,5.6,5.8,97,0.00,CLR,,0.00,WeatherDisplay:10.37,2013-01-23 23:50:00,
2013-01-23 17:51:00,13.7,13.0,30.10,WNW,299,3.7,5.8,97,0.00,CLR,,0.00,WeatherDisplay:10.37,2013-01-23 23:51:00,
2013-01-23 17:53:00,13.6,12.9,30.10,NNW,328,3.6,7.0,97,0.00,CLR,,0.00,WeatherDisplay:10.37,2013-01-23 23:53:00,
2013-01-23 17:55:00,13.6,12.9,30.11,NW,320,6.6,10.4,97,0.00,CLR,,0.00,WeatherDisplay:10.37,2013-01-23 23:55:00,
2013-01-23 17:56:00,13.4,12.7,30.11,NW,304,4.9,8.1,97,0.00,CLR,,0.00,WeatherDisplay:10.37,2013-01-23 23:56:00,
2013-01-23 17:58:00,13.5,12.8,30.11,NE,41,5.9,12.7,97,0.00,CLR,,0.00,WeatherDisplay:10.37,2013-01-23 23:58:00,
2013-01-23 18:00:00,13.5,12.8,30.11,WNW,302,6.0,10.4,97,0.00,CLR,,0.00,WeatherDisplay:10.37,2013-01-24 00:00:00,
2013-01-23 18:01:00,13.4,12.7,30.11,WNW,284,3.8,8.1,97,0.00,CLR,,0.00,WeatherDisplay:10.37,2013-01-24 00:01:00,
2013-01-23 18:03:00,13.4,12.7,30.11,WNW,299,5.5,10.4,97,0.00,CLR,,0.00,WeatherDisplay:10.37,2013-01-24 00:03:00,
2013-01-23 18:06:00,13.3,12.6,30.11,WNW,284,7.4,12.7,97,0.00,CLR,,0.00,WeatherDisplay:10.37,2013-01-24 00:06:00,
2013-01-23 18:09:00,13.1,12.4,30.11,WNW,301,9.2,16.1,97,0.00,CLR,,0.00,WeatherDisplay:10.37,2013-01-24 00:09:00,
2013-01-23 18:11:00,13.0,12.3,30.12,North,360,9.2,12.1,97,0.00,CLR,,0.00,WeatherDisplay:10.37,2013-01-24 00:11:00,
2013-01-23 18:12:00,13.1,12.4,30.12,NW,315,7.4,15.0,97,0.00,CLR,,0.00,WeatherDisplay:10.37,2013-01-24 00:12:00,
2013-01-23 18:14:00,13.0,12.3,30.12,West,265,8.3,15.0,97,0.00,CLR,,0.00,WeatherDisplay:10.37,2013-01-24 00:14:00,
2013-01-23 18:16:00,13.0,12.3,30.12,NNW,328,6.7,12.6,97,0.00,CLR,,0.00,WeatherDisplay:10.37,2013-01-24 00:16:00,
2013-01-23 18:17:00,13.0,12.3,30.12,NNW,346,8.1,12.7,97,0.00,CLR,,0.00,WeatherDisplay:10.37,2013-01-24 00:17:00,
2013-01-23 18:19:00,13.0,12.3,30.13,NW,326,5.1,8.1,97,0.00,CLR,,0.00,WeatherDisplay:10.37,2013-01-24 00:19:00,
2013-01-23 18:21:00,13.0,12.3,30.13,North,0,7.3,12.7,97,0.00,CLR,,0.00,WeatherDisplay:10.37,2013-01-24 00:21:00,
2013-01-23 18:22:00,12.7,12.0,30.13,WNW,295,7.7,13.8,97,0.00,CLR,,0.00,WeatherDisplay:10.37,2013-01-24 00:22:00,
2013-01-23 18:24:00,12.8,12.1,30.13,NW,315,6.3,11.5,97,0.00,CLR,,0.00,WeatherDisplay:10.37,2013-01-24 00:24:00,
2013-01-23 18:25:00,12.8,12.1,30.13,NW,306,7.5,12.7,97,0.00,CLR,,0.00,WeatherDisplay:10.37,2013-01-24 00:25:00,
2013-01-23 18:26:00,12.7,12.0,30.13,North,3,7.2,13.8,97,0.00,CLR,,0.00,WeatherDisplay:10.37,2013-01-24 00:26:00,
2013-01-23 18:27:00,12.6,11.9,30.13,West,278,7.5,13.8,97,0.00,CLR,,0.00,WeatherDisplay:10.37,2013-01-24 00:27:00,
2013-01-23 18:29:00,12.6,11.9,30.13,WNW,294,6.2,10.4,97,0.00,CLR,,0.00,WeatherDisplay:10.37,2013-01-24 00:29:00,
2013-01-23 18:30:00,12.5,11.8,30.14,North,349,7.3,10.4,97,0.00,CLR,,0.00,WeatherDisplay:10.37,2013-01-24 00:30:00,
2013-01-23 18:31:00,12.4,11.7,30.14,WNW,282,5.1,8.1,97,0.00,CLR,,0.00,WeatherDisplay:10.37,2013-01-24 00:31:00,
2013-01-23 18:32:00,12.4,11.7,30.14,WNW,294,4.6,8.1,97,0.00,CLR,,0.00,WeatherDisplay:10.37,2013-01-24 00:32:00,
2013-01-23 18:34:00,12.3,11.6,30.14,NW,308,5.4,9.2,97,0.00,CLR,,0.00,WeatherDisplay:10.37,2013-01-24 00:34:00,
2013-01-23 18:35:00,12.1,11.4,30.14,NNW,339,8.3,11.4,97,0.00,CLR,,0.00,WeatherDisplay:10.37,2013-01-24 00:35:00,
2013-01-23 18:36:00,12.2,11.5,30.14,WNW,295,7.4,14.2,97,0.00,CLR,,0.00,WeatherDisplay:10.37,2013-01-24 00:36:00,
2013-01-23 18:37:00,12.1,11.4,30.14,WNW,295,8.0,12.7,97,0.00,CLR,,0.00,WeatherDisplay:10.37,2013-01-24 00:37:00,
2013-01-23 18:39:00,11.9,11.2,30.14,NE,34,10.3,11.5,97,0.00,CLR,,0.00,WeatherDisplay:10.37,2013-01-24 00:39:00,
2013-01-23 18:40:00,11.9,11.2,30.14,NW,315,7.9,18.4,97,0.00,CLR,,0.00,WeatherDisplay:10.37,2013-01-24 00:40:00,
2013-01-23 18:41:00,11.8,11.1,30.15,NNE,23,9.2,15.4,97,0.00,CLR,,0.00,WeatherDisplay:10.37,2013-01-24 00:41:00,
2013-01-23 18:42:00,11.9,11.2,30.14,NNW,329,8.9,15.0,97,0.00,CLR,,0.00,WeatherDisplay:10.37,2013-01-24 00:42:00,
2013-01-23 18:44:00,11.6,10.9,30.15,West,281,8.7,13.8,97,0.00,CLR,,0.00,WeatherDisplay:10.37,2013-01-24 00:44:00,
2013-01-23 18:45:00,11.8,11.1,30.15,WNW,299,8.1,14.7,97,0.00,CLR,,0.00,WeatherDisplay:10.37,2013-01-24 00:45:00,
2013-01-23 18:46:00,11.7,10.8,30.15,NW,325,7.6,11.5,96,0.00,CLR,,0.00,WeatherDisplay:10.37,2013-01-24 00:46:00,
2013-01-23 18:48:00,11.6,10.7,30.15,North,354,9.4,16.1,96,0.00,CLR,,0.00,WeatherDisplay:10.37,2013-01-24 00:48:00,
2013-01-23 18:49:00,11.6,10.7,30.15,West,260,10.0,12.7,96,0.00,CLR,,0.00,WeatherDisplay:10.37,2013-01-24 00:49:00,
2013-01-23 18:50:00,11.6,10.7,30.15,WNW,285,7.3,12.7,96,0.00,CLR,,0.00,WeatherDisplay:10.37,2013-01-24 00:50:00,
2013-01-23 18:51:00,11.3,10.4,30.15,North,360,8.5,13.8,96,0.00,CLR,,0.00,WeatherDisplay:10.37,2013-01-24 00:51:00,
2013-01-23 18:53:00,11.4,10.2,30.16,WNW,291,6.3,17.3,95,0.00,CLR,,0.00,WeatherDisplay:10.37,2013-01-24 00:53:00,
2013-01-23 18:54:00,11.3,10.4,30.16,NNE,25,7.6,13.8,96,0.00,CLR,,0.00,WeatherDisplay:10.37,2013-01-24 00:54:00,
2013-01-23 18:55:00,11.2,10.0,30.16,NNW,330,10.0,17.3,95,0.00,CLR,,0.00,WeatherDisplay:10.37,2013-01-24 00:55:00,
2013-01-23 18:57:00,11.1,9.9,30.16,NNW,339,9.0,17.3,95,0.00,CLR,,0.00,WeatherDisplay:10.37,2013-01-24 00:57:00,
2013-01-23 18:58:00,10.9,9.5,30.16,WNW,288,10.6,18.4,94,0.00,CLR,,0.00,WeatherDisplay:10.37,2013-01-24 00:58:00,
2013-01-23 18:59:00,10.9,9.7,30.16,North,356,5.9,13.1,95,0.00,CLR,,0.00,WeatherDisplay:10.37,2013-01-24 00:59:00,
2013-01-23 19:01:00,10.9,9.7,30.17,NW,325,9.1,15.0,95,0.00,CLR,,0.00,WeatherDisplay:10.37,2013-01-24 01:01:00,
2013-01-23 19:02:00,10.7,9.6,30.17,NW,315,6.5,13.8,95,0.00,CLR,,0.00,WeatherDisplay:10.37,2013-01-24 01:02:00,
2013-01-23 19:03:00,10.7,9.3,30.17,North,360,6.5,11.5,94,0.00,CLR,,0.00,WeatherDisplay:10.37,2013-01-24 01:03:00,
2013-01-23 19:04:00,10.7,9.3,30.17,WNW,295,6.9,15.0,94,0.00,CLR,,0.00,WeatherDisplay:10.37,2013-01-24 01:04:00,
2013-01-23 19:06:00,10.5,9.1,30.17,NNW,343,8.3,15.0,94,0.00,CLR,,0.00,WeatherDisplay:10.37,2013-01-24 01:06:00,
2013-01-23 19:07:00,10.6,9.2,30.17,NNE,32,7.4,13.8,94,0.00,CLR,,0.00,WeatherDisplay:10.37,2013-01-24 01:07:00,
2013-01-23 19:09:00,10.5,9.1,30.17,North,360,8.6,12.7,94,0.00,CLR,,0.00,WeatherDisplay:10.37,2013-01-24 01:09:00,
2013-01-23 19:11:00,10.4,8.8,30.18,North,11,6.9,16.1,93,0.00,CLR,,0.00,WeatherDisplay:10.37,2013-01-24 01:11:00,
2013-01-23 19:12:00,10.3,8.7,30.18,NNW,332,6.0,10.4,93,0.00,CLR,,0.00,WeatherDisplay:10.37,2013-01-24 01:12:00,
2013-01-23 19:14:00,10.4,9.0,30.18,NNE,21,6.6,11.7,94,0.00,CLR,,0.00,WeatherDisplay:10.37,2013-01-24 01:14:00,
2013-01-23 19:15:00,10.4,9.0,30.18,NNW,340,9.2,19.6,94,0.00,CLR,,0.00,WeatherDisplay:10.37,2013-01-24 01:15:00,
2013-01-23 19:16:00,10.3,8.7,30.19,NW,309,7.2,14.1,93,0.00,CLR,,0.00,WeatherDisplay:10.37,2013-01-24 01:16:00,
2013-01-23 19:18:00,10.3,8.4,30.19,NW,320,7.5,16.1,92,0.00,CLR,,0.00,WeatherDisplay:10.37,2013-01-24 01:18:00,
2013-01-23 19:19:00,10.3,8.4,30.19,NNW,337,8.5,12.7,92,0.00,CLR,,0.00,WeatherDisplay:10.37,2013-01-24 01:19:00,
2013-01-23 19:20:00,10.1,8.2,30.19,NNW,347,8.8,15.0,92,0.00,CLR,,0.00,WeatherDisplay:10.37,2013-01-24 01:20:00,
2013-01-23 19:21:00,10.2,7.9,30.19,North,1,6.6,13.8,90,0.00,CLR,,0.00,WeatherDisplay:10.37,2013-01-24 01:21:00,
2013-01-23 19:23:00,10.1,7.8,30.19,NE,54,9.3,16.1,90,0.00,CLR,,0.00,WeatherDisplay:10.37,2013-01-24 01:23:00,
2013-01-23 19:24:00,9.9,7.6,30.20,NNW,340,7.8,19.6,90,0.00,CLR,,0.00,WeatherDisplay:10.37,2013-01-24 01:24:00,
2013-01-23 19:25:00,10.1,7.5,30.20,NNE,24,5.8,12.6,89,0.00,CLR,,0.00,WeatherDisplay:10.37,2013-01-24 01:25:00,
2013-01-23 19:26:00,10.0,7.4,30.20,North,8,5.4,12.7,89,0.00,CLR,,0.00,WeatherDisplay:10.37,2013-01-24 01:26:00,
2013-01-23 19:28:00,9.9,7.1,30.20,WNW,302,8.4,17.3,88,0.00,CLR,,0.00,WeatherDisplay:10.37,2013-01-24 01:28:00,
2013-01-23 19:29:00,9.8,6.7,30.20,West,274,11.2,20.7,87,0.00,CLR,,0.00,WeatherDisplay:10.37,2013-01-24 01:29:00,
2013-01-23 19:31:00,9.7,6.6,30.20,NNW,347,8.7,15.0,87,0.00,CLR,,0.00,WeatherDisplay:10.37,2013-01-24 01:31:00,
2013-01-23 19:32:00,9.8,6.7,30.21,North,1,9.1,13.8,87,0.00,CLR,,0.00,WeatherDisplay:10.37,2013-01-24 01:32:00,
2013-01-23 19:33:00,9.6,7.3,30.21,NNE,16,8.3,17.3,90,0.00,CLR,,0.00,WeatherDisplay:10.37,2013-01-24 01:33:00,
2013-01-23 19:34:00,9.5,7.2,30.21,North,360,8.8,11.5,90,0.00,CLR,,0.00,WeatherDisplay:10.37,2013-01-24 01:34:00,
2013-01-23 19:36:00,9.6,7.3,30.21,NNE,30,9.2,16.1,90,0.00,CLR,,0.00,WeatherDisplay:10.37,2013-01-24 01:36:00,
2013-01-23 19:37:00,9.4,7.1,30.20,North,360,8.7,11.5,90,0.00,CLR,,0.00,WeatherDisplay:10.37,2013-01-24 01:37:00,
2013-01-23 19:39:00,9.4,6.8,30.21,NW,308,9.1,16.1,89,0.00,CLR,,0.00,WeatherDisplay:10.37,2013-01-24 01:39:00,
2013-01-23 19:41:00,9.2,6.4,30.21,NNW,332,6.3,15.0,88,0.00,CLR,,0.00,WeatherDisplay:10.37,2013-01-24 01:41:00,
2013-01-23 19:42:00,9.3,6.5,30.21,WNW,294,7.3,11.5,88,0.00,CLR,,0.00,WeatherDisplay:10.37,2013-01-24 01:42:00,
2013-01-23 19:44:00,9.1,6.0,30.21,NW,316,6.9,16.1,87,0.00,CLR,,0.00,WeatherDisplay:10.37,2013-01-24 01:44:00,
2013-01-23 19:46:00,9.0,5.7,30.22,NNW,342,12.2,12.2,86,0.00,CLR,,0.00,WeatherDisplay:10.37,2013-01-24 01:46:00,
2013-01-23 19:48:00,9.0,5.9,30.22,NNW,329,7.8,13.8,87,0.00,CLR,,0.00,WeatherDisplay:10.37,2013-01-24 01:48:00,
2013-01-23 19:49:00,8.9,5.8,30.22,North,7,9.7,17.3,87,0.00,CLR,,0.00,WeatherDisplay:10.37,2013-01-24 01:49:00,
2013-01-23 19:51:00,9.0,5.7,30.22,NNE,16,7.0,18.4,86,0.00,CLR,,0.00,WeatherDisplay:10.37,2013-01-24 01:51:00,
2013-01-23 19:53:00,8.9,5.3,30.22,WNW,295,9.2,18.4,85,0.00,CLR,,0.00,WeatherDisplay:10.37,2013-01-24 01:53:00,
2013-01-23 19:54:00,8.9,5.3,30.22,NW,312,8.0,16.1,85,0.00,CLR,,0.00,WeatherDisplay:10.37,2013-01-24 01:54:00,
2013-01-23 19:56:00,8.7,4.9,30.22,NNW,346,9.9,16.1,84,0.00,CLR,,0.00,WeatherDisplay:10.37,2013-01-24 01:56:00,
2013-01-23 19:58:00,8.7,5.1,30.22,NNE,28,9.2,23.0,85,0.00,CLR,,0.00,WeatherDisplay:10.37,2013-01-24 01:58:00,
2013-01-23 19:59:00,8.7,5.4,30.22,ENE,61,7.7,18.4,86,0.00,CLR,,0.00,WeatherDisplay:10.37,2013-01-24 01:59:00,
2013-01-23 20:01:00,8.8,5.7,30.22,North,359,8.7,15.2,87,0.00,CLR,,0.00,WeatherDisplay:10.37,2013-01-24 02:01:00,
2013-01-23 20:03:00,8.7,5.4,30.22,North,10,7.8,18.4,86,0.00,CLR,,0.00,WeatherDisplay:10.37,2013-01-24 02:03:00,
2013-01-23 20:05:00,8.7,5.4,30.22,NNW,339,8.7,16.1,86,0.00,CLR,,0.00,WeatherDisplay:10.37,2013-01-24 02:05:00,
2013-01-23 20:06:00,8.6,5.0,30.23,NNW,328,11.8,23.0,85,0.00,CLR,,0.00,WeatherDisplay:10.37,2013-01-24 02:06:00,
2013-01-23 20:08:00,8.6,5.5,30.23,NW,320,8.9,21.9,87,0.00,CLR,,0.00,WeatherDisplay:10.37,2013-01-24 02:08:00,
2013-01-23 20:10:00,8.6,5.8,30.23,NNW,340,9.1,19.6,88,0.00,CLR,,0.00,WeatherDisplay:10.37,2013-01-24 02:10:00,
2013-01-23 20:12:00,8.7,5.9,30.23,NNW,330,7.6,11.5,88,0.00,CLR,,0.00,WeatherDisplay:10.37,2013-01-24 02:12:00,
2013-01-23 20:13:00,8.5,5.9,30.23,North,0,6.9,12.7,89,0.00,CLR,,0.00,WeatherDisplay:10.37,2013-01-24 02:13:00,
2013-01-23 20:15:00,8.6,6.0,30.23,NW,311,5.3,12.7,89,0.00,CLR,,0.00,WeatherDisplay:10.37,2013-01-24 02:15:00,
2013-01-23 20:17:00,8.4,5.6,30.23,NNW,330,7.6,10.8,88,0.00,CLR,,0.00,WeatherDisplay:10.37,2013-01-24 02:17:00,
2013-01-23 20:18:00,8.4,5.3,30.24,NNE,32,5.8,12.4,87,0.00,CLR,,0.00,WeatherDisplay:10.37,2013-01-24 02:18:00,
2013-01-23 20:20:00,8.5,5.4,30.24,NNE,14,8.3,13.8,87,0.00,CLR,,0.00,WeatherDisplay:10.37,2013-01-24 02:20:00,
2013-01-23 20:22:00,8.3,5.2,30.24,NNW,337,7.1,10.4,87,0.00,CLR,,0.00,WeatherDisplay:10.37,2013-01-24 02:22:00,
2013-01-23 20:23:00,8.4,5.3,30.24,NNE,13,4.4,9.2,87,0.00,CLR,,0.00,WeatherDisplay:10.37,2013-01-24 02:23:00,
2013-01-23 20:25:00,8.3,5.2,30.25,North,352,4.0,7.8,87,0.00,CLR,,0.00,WeatherDisplay:10.37,2013-01-24 02:25:00,
2013-01-23 20:27:00,8.3,5.2,30.25,NNW,343,7.8,15.0,87,0.00,CLR,,0.00,WeatherDisplay:10.37,2013-01-24 02:27:00,
2013-01-23 20:28:00,8.1,5.0,30.25,North,11,4.7,11.5,87,0.00,CLR,,0.00,WeatherDisplay:10.37,2013-01-24 02:28:00,
2013-01-23 20:30:00,8.2,5.1,30.25,North,360,3.9,7.1,87,0.00,CLR,,0.00,WeatherDisplay:10.37,2013-01-24 02:30:00,
2013-01-23 20:32:00,8.3,5.2,30.25,North,0,4.5,6.9,87,0.00,CLR,,0.00,WeatherDisplay:10.37,2013-01-24 02:32:00,
2013-01-23 20:34:00,8.2,5.1,30.25,NNE,31,5.3,15.0,87,0.00,CLR,,0.00,WeatherDisplay:10.37,2013-01-24 02:34:00,
2013-01-23 20:35:00,8.3,5.2,30.26,North,4,4.9,8.1,87,0.00,CLR,,0.00,WeatherDisplay:10.37,2013-01-24 02:35:00,
2013-01-23 20:38:00,8.1,4.8,30.26,NNW,343,7.2,14.5,86,0.00,CLR,,0.00,WeatherDisplay:10.37,2013-01-24 02:38:00,
2013-01-23 20:39:00,8.2,4.9,30.26,NNE,31,5.0,15.0,86,0.00,CLR,,0.00,WeatherDisplay:10.37,2013-01-24 02:39:00,
2013-01-23 20:40:00,8.2,4.9,30.26,North,354,6.0,9.2,86,0.00,CLR,,0.00,WeatherDisplay:10.37,2013-01-24 02:40:00,
2013-01-23 20:43:00,8.1,4.3,30.26,North,10,8.7,16.1,84,0.00,CLR,,0.00,WeatherDisplay:10.37,2013-01-24 02:43:00,
2013-01-23 20:44:00,8.1,4.3,30.26,NW,309,9.1,15.0,84,0.00,CLR,,0.00,WeatherDisplay:10.37,2013-01-24 02:44:00,
2013-01-23 20:45:00,8.1,4.0,30.26,North,353,9.1,18.4,83,0.00,CLR,,0.00,WeatherDisplay:10.37,2013-01-24 02:45:00,
2013-01-23 20:48:00,7.8,3.4,30.26,North,7,7.0,13.8,82,0.00,CLR,,0.00,WeatherDisplay:10.37,2013-01-24 02:48:00,
2013-01-23 20:49:00,7.8,3.4,30.26,North,8,6.0,11.5,82,0.00,CLR,,0.00,WeatherDisplay:10.37,2013-01-24 02:49:00,
2013-01-23 20:50:00,7.8,3.7,30.26,North,6,6.6,9.2,83,0.00,CLR,,0.00,WeatherDisplay:10.37,2013-01-24 02:50:00,
2013-01-23 20:51:00,7.7,3.6,30.26,NW,308,6.5,10.4,83,0.00,CLR,,0.00,WeatherDisplay:10.37,2013-01-24 02:51:00,
2013-01-23 20:53:00,7.6,3.5,30.27,North,4,7.6,18.4,83,0.00,CLR,,0.00,WeatherDisplay:10.37,2013-01-24 02:53:00,
2013-01-23 20:54:00,7.6,3.5,30.27,NNW,332,7.7,15.3,83,0.00,CLR,,0.00,WeatherDisplay:10.37,2013-01-24 02:54:00,
2013-01-23 20:56:00,7.6,3.8,30.27,NNW,342,7.8,11.5,84,0.00,CLR,,0.00,WeatherDisplay:10.37,2013-01-24 02:56:00,
2013-01-23 20:58:00,7.4,3.6,30.27,ENE,78,7.5,15.0,84,0.00,CLR,,0.00,WeatherDisplay:10.37,2013-01-24 02:58:00,
2013-01-23 20:59:00,7.4,3.6,30.27,NNW,329,7.2,16.1,84,0.00,CLR,,0.00,WeatherDisplay:10.37,2013-01-24 02:59:00,
2013-01-23 21:01:00,7.3,3.5,30.27,NNW,339,7.9,10.9,84,0.00,CLR,,0.00,WeatherDisplay:10.37,2013-01-24 03:01:00,
2013-01-23 21:03:00,7.2,3.4,30.27,NE,48,2.1,5.8,84,0.00,CLR,,0.00,WeatherDisplay:10.37,2013-01-24 03:03:00,
2013-01-23 21:05:00,7.4,3.6,30.27,NNW,330,5.8,9.4,84,0.00,CLR,,0.00,WeatherDisplay:10.37,2013-01-24 03:05:00,
2013-01-23 21:06:00,7.2,3.4,30.27,NNW,343,5.6,9.2,84,0.00,CLR,,0.00,WeatherDisplay:10.37,2013-01-24 03:06:00,
2013-01-23 21:08:00,7.1,3.0,30.27,NNW,344,5.4,10.4,83,0.00,CLR,,0.00,WeatherDisplay:10.37,2013-01-24 03:08:00,
2013-01-23 21:10:00,7.0,2.9,30.28,North,360,5.5,9.4,83,0.00,CLR,,0.00,WeatherDisplay:10.37,2013-01-24 03:10:00,
2013-01-23 21:11:00,7.0,3.2,30.28,North,360,5.5,11.5,84,0.00,CLR,,0.00,WeatherDisplay:10.37,2013-01-24 03:11:00,
2013-01-23 21:14:00,6.6,2.5,30.28,NNE,28,10.3,17.3,83,0.00,CLR,,0.00,WeatherDisplay:10.37,2013-01-24 03:14:00,
2013-01-23 21:15:00,6.6,2.5,30.28,NW,326,8.0,15.0,83,0.00,CLR,,0.00,WeatherDisplay:10.37,2013-01-24 03:15:00,
2013-01-23 21:16:00,6.7,2.6,30.28,NE,34,3.5,11.5,83,0.00,CLR,,0.00,WeatherDisplay:10.37,2013-01-24 03:16:00,
2013-01-23 21:19:00,6.6,2.5,30.28,NNW,328,5.7,9.2,83,0.00,CLR,,0.00,WeatherDisplay:10.37,2013-01-24 03:19:00,
2013-01-23 21:20:00,6.6,2.5,30.28,NNW,344,6.1,10.5,83,0.00,CLR,,0.00,WeatherDisplay:10.37,2013-01-24 03:20:00,
2013-01-23 21:21:00,6.3,2.2,30.28,NW,319,6.4,15.0,83,0.00,CLR,,0.00,WeatherDisplay:10.37,2013-01-24 03:21:00,
2013-01-23 21:24:00,6.2,2.1,30.29,North,357,4.3,13.8,83,0.00,CLR,,0.00,WeatherDisplay:10.37,2013-01-24 03:24:00,
2013-01-23 21:25:00,6.3,2.2,30.29,North,360,9.2,11.5,83,0.00,CLR,,0.00,WeatherDisplay:10.37,2013-01-24 03:25:00,
2013-01-23 21:26:00,6.2,2.1,30.29,NNE,30,8.8,13.8,83,0.00,CLR,,0.00,WeatherDisplay:10.37,2013-01-24 03:26:00,
2013-01-23 21:27:00,6.3,2.2,30.29,NE,41,5.4,13.8,83,0.00,CLR,,0.00,WeatherDisplay:10.37,2013-01-24 03:27:00,
2013-01-23 21:29:00,6.2,1.9,30.29,North,356,7.1,11.5,82,0.00,CLR,,0.00,WeatherDisplay:10.37,2013-01-24 03:29:00,
2013-01-23 21:30:00,6.2,1.9,30.29,NW,316,6.6,11.5,82,0.00,CLR,,0.00,WeatherDisplay:10.37,2013-01-24 03:30:00,
2013-01-23 21:31:00,6.0,1.7,30.29,NW,315,8.0,9.2,82,0.00,CLR,,0.00,WeatherDisplay:10.37,2013-01-24 03:31:00,
2013-01-23 21:32:00,6.1,2.0,30.29,WNW,291,2.5,17.3,83,0.00,CLR,,0.00,WeatherDisplay:10.37,2013-01-24 03:32:00,
2013-01-23 21:34:00,6.0,1.7,30.29,North,353,8.4,17.3,82,0.00,CLR,,0.00,WeatherDisplay:10.37,2013-01-24 03:34:00,
2013-01-23 21:35:00,6.0,1.7,30.29,North,360,7.9,17.3,82,0.00,CLR,,0.00,WeatherDisplay:10.37,2013-01-24 03:35:00,
2013-01-23 21:36:00,6.0,1.7,30.29,North,360,9.7,18.4,82,0.00,CLR,,0.00,WeatherDisplay:10.37,2013-01-24 03:36:00,
2013-01-23 21:37:00,5.8,1.5,30.28,NNW,339,9.4,16.1,82,0.00,CLR,,0.00,WeatherDisplay:10.37,2013-01-24 03:37:00,
2013-01-23 21:39:00,5.9,1.6,30.28,North,357,7.4,15.4,82,0.00,CLR,,0.00,WeatherDisplay:10.37,2013-01-24 03:39:00,
2013-01-23 21:40:00,5.8,1.5,30.28,NNW,328,8.8,11.5,82,0.00,CLR,,0.00,WeatherDisplay:10.37,2013-01-24 03:40:00,
2013-01-23 21:41:00,5.7,1.4,30.28,NNW,337,6.5,10.4,82,0.00,CLR,,0.00,WeatherDisplay:10.37,2013-01-24 03:41:00,
2013-01-23 21:42:00,5.7,1.4,30.29,NW,326,8.5,15.0,82,0.00,CLR,,0.00,WeatherDisplay:10.37,2013-01-24 03:42:00,
2013-01-23 21:44:00,5.7,1.4,30.29,North,4,6.5,16.1,82,0.00,CLR,,0.00,WeatherDisplay:10.37,2013-01-24 03:44:00,
2013-01-23 21:45:00,5.7,1.4,30.29,North,353,3.2,16.1,82,0.00,CLR,,0.00,WeatherDisplay:10.37,2013-01-24 03:45:00,
2013-01-23 21:47:00,5.6,1.3,30.30,North,7,6.1,15.0,82,0.00,CLR,,0.00,WeatherDisplay:10.37,2013-01-24 03:47:00,
2013-01-23 21:49:00,5.5,1.2,30.30,NNE,18,9.3,17.3,82,0.00,CLR,,0.00,WeatherDisplay:10.37,2013-01-24 03:49:00,
2013-01-23 21:50:00,5.5,0.9,30.30,NNE,14,9.4,17.3,81,0.00,CLR,,0.00,WeatherDisplay:10.37,2013-01-24 03:50:00,
2013-01-23 21:52:00,5.4,0.8,30.30,North,0,7.5,11.5,81,0.00,CLR,,0.00,WeatherDisplay:10.37,2013-01-24 03:52:00,
2013-01-23 21:55:00,5.3,0.7,30.30,North,360,7.6,13.8,81,0.00,CLR,,0.00,WeatherDisplay:10.37,2013-01-24 03:55:00,
2013-01-23 21:57:00,5.3,0.7,30.30,WNW,299,6.2,13.8,81,0.00,CLR,,0.00,WeatherDisplay:10.37,2013-01-24 03:57:00,
2013-01-23 21:58:00,5.3,0.7,30.30,NNW,340,4.8,13.8,81,0.00,CLR,,0.00,WeatherDisplay:10.37,2013-01-24 03:58:00,
2013-01-23 22:00:00,5.3,0.5,30.30,North,360,7.6,12.7,80,0.00,CLR,,0.00,WeatherDisplay:10.37,2013-01-24 04:00:00,
2013-01-23 22:02:00,5.2,0.4,30.30,NNW,346,8.7,16.1,80,0.00,CLR,,0.00,WeatherDisplay:10.37,2013-01-24 04:02:00,
2013-01-23 22:03:00,5.1,0.3,30.30,NNW,347,8.0,15.4,80,0.00,CLR,,0.00,WeatherDisplay:10.37,2013-01-24 04:03:00,
2013-01-23 22:05:00,5.1,0.3,30.30,NNW,342,7.8,18.4,80,0.00,CLR,,0.00,WeatherDisplay:10.37,2013-01-24 04:05:00,
2013-01-23 22:07:00,5.1,0.3,30.31,West,281,7.9,10.4,80,0.00,CLR,,0.00,WeatherDisplay:10.37,2013-01-24 04:07:00,
2013-01-23 22:08:00,5.1,0.3,30.31,NNW,343,8.4,15.0,80,0.00,CLR,,0.00,WeatherDisplay:10.37,2013-01-24 04:08:00,
2013-01-23 22:10:00,5.1,0.3,30.31,NNE,16,4.0,12.7,80,0.00,CLR,,0.00,WeatherDisplay:10.37,2013-01-24 04:10:00,
2013-01-23 22:12:00,5.1,0.5,30.31,North,360,5.9,7.7,81,0.00,CLR,,0.00,WeatherDisplay:10.37,2013-01-24 04:12:00,
2013-01-23 22:13:00,4.9,0.1,30.31,North,350,7.7,10.4,80,0.00,CLR,,0.00,WeatherDisplay:10.37,2013-01-24 04:13:00,
2013-01-23 22:15:00,4.9,0.1,30.31,West,272,3.8,10.4,80,0.00,CLR,,0.00,WeatherDisplay:10.37,2013-01-24 04:15:00,
2013-01-23 22:17:00,4.9,0.3,30.31,North,7,5.2,12.7,81,0.00,CLR,,0.00,WeatherDisplay:10.37,2013-01-24 04:17:00,
2013-01-23 22:18:00,4.9,0.3,30.31,North,3,5.5,12.7,81,0.00,CLR,,0.00,WeatherDisplay:10.37,2013-01-24 04:18:00,
2013-01-23 22:20:00,4.6,0.1,30.32,North,6,8.4,13.8,81,0.00,CLR,,0.00,WeatherDisplay:10.37,2013-01-24 04:20:00,
2013-01-23 22:21:00,4.8,0.0,30.32,North,349,7.7,13.8,80,0.00,CLR,,0.00,WeatherDisplay:10.37,2013-01-24 04:21:00,
2013-01-23 22:22:00,4.8,0.2,30.32,WNW,292,3.8,9.2,81,0.00,CLR,,0.00,WeatherDisplay:10.37,2013-01-24 04:22:00,
2013-01-23 22:23:00,4.8,0.2,30.32,North,360,5.1,9.2,81,0.00,CLR,,0.00,WeatherDisplay:10.37,2013-01-24 04:23:00,
2013-01-23 22:26:00,4.7,-0.1,30.32,NNE,14,6.8,10.4,80,0.00,CLR,,0.00,WeatherDisplay:10.37,2013-01-24 04:26:00,
2013-01-23 22:27:00,4.6,-0.2,30.32,WNW,291,7.4,16.1,80,0.00,CLR,,0.00,WeatherDisplay:10.37,2013-01-24 04:27:00,
2013-01-23 22:28:00,4.6,-0.2,30.32,North,360,7.2,16.1,80,0.00,CLR,,0.00,WeatherDisplay:10.37,2013-01-24 04:28:00,
2013-01-23 22:31:00,4.4,-0.4,30.32,North,350,6.3,16.6,80,0.00,CLR,,0.00,WeatherDisplay:10.37,2013-01-24 04:31:00,
2013-01-23 22:33:00,4.4,-0.4,30.32,NNW,332,9.1,13.8,80,0.00,CLR,,0.00,WeatherDisplay:10.37,2013-01-24 04:33:00,
2013-01-23 22:36:00,4.2,-0.6,30.33,North,360,4.9,9.8,80,0.00,CLR,,0.00,WeatherDisplay:10.37,2013-01-24 04:36:00,
2013-01-23 22:38:00,4.2,-0.6,30.33,NNW,337,6.6,12.7,80,0.00,CLR,,0.00,WeatherDisplay:10.37,2013-01-24 04:38:00,
2013-01-23 22:41:00,4.0,-1.1,30.33,NW,325,7.1,12.7,79,0.00,CLR,,0.00,WeatherDisplay:10.37,2013-01-24 04:41:00,
2013-01-23 22:43:00,3.9,-1.4,30.33,NNE,14,8.9,15.0,78,0.00,CLR,,0.00,WeatherDisplay:10.37,2013-01-24 04:43:00,
2013-01-23 22:46:00,3.7,-1.4,30.33,North,360,7.8,17.3,79,0.00,CLR,,0.00,WeatherDisplay:10.37,2013-01-24 04:46:00,
2013-01-23 22:48:00,3.7,-1.6,30.33,North,360,7.4,9.7,78,0.00,CLR,,0.00,WeatherDisplay:10.37,2013-01-24 04:48:00,
2013-01-23 22:51:00,3.5,-1.8,30.34,NNE,16,7.1,15.0,78,0.00,CLR,,0.00,WeatherDisplay:10.37,2013-01-24 04:51:00,
2013-01-23 22:52:00,3.6,-1.7,30.34,North,360,6.6,12.7,78,0.00,CLR,,0.00,WeatherDisplay:10.37,2013-01-24 04:52:00,
2013-01-23 22:53:00,3.3,-2.0,30.34,NNE,32,7.4,12.7,78,0.00,CLR,,0.00,WeatherDisplay:10.37,2013-01-24 04:53:00,
2013-01-23 22:56:00,3.3,-2.0,30.34,NNE,23,8.4,16.1,78,0.00,CLR,,0.00,WeatherDisplay:10.37,2013-01-24 04:56:00,
2013-01-23 22:57:00,3.2,-2.1,30.34,North,1,6.0,12.7,78,0.00,CLR,,0.00,WeatherDisplay:10.37,2013-01-24 04:57:00,
2013-01-23 22:58:00,3.3,-2.0,30.34,North,360,5.6,12.7,78,0.00,CLR,,0.00,WeatherDisplay:10.37,2013-01-24 04:58:00,
2013-01-23 23:00:00,3.0,-2.3,30.34,NNW,336,7.5,13.8,78,0.00,CLR,,0.00,WeatherDisplay:10.37,2013-01-24 05:00:00,
2013-01-23 23:01:00,3.0,-2.3,30.34,NW,309,4.8,9.2,78,0.00,CLR,,0.00,WeatherDisplay:10.37,2013-01-24 05:01:00,
2013-01-23 23:03:00,2.9,-2.4,30.35,NE,38,4.4,17.3,78,0.00,CLR,,0.00,WeatherDisplay:10.37,2013-01-24 05:03:00,
2013-01-23 23:05:00,3.0,-2.3,30.35,North,360,5.6,11.5,78,0.00,CLR,,0.00,WeatherDisplay:10.37,2013-01-24 05:05:00,
2013-01-23 23:06:00,3.0,-2.3,30.35,North,349,6.0,11.5,78,0.00,CLR,,0.00,WeatherDisplay:10.37,2013-01-24 05:06:00,
2013-01-23 23:08:00,2.9,-2.4,30.35,NW,308,1.4,6.9,78,0.00,CLR,,0.00,WeatherDisplay:10.37,2013-01-24 05:08:00,
2013-01-23 23:11:00,2.7,-2.3,30.35,NNW,329,1.6,5.8,79,0.00,CLR,,0.00,WeatherDisplay:10.37,2013-01-24 05:11:00,
2013-01-23 23:13:00,2.7,-2.3,30.35,NNW,330,5.3,10.4,79,0.00,CLR,,0.00,WeatherDisplay:10.37,2013-01-24 05:13:00,
2013-01-23 23:16:00,2.5,-2.5,30.35,North,360,6.1,12.7,79,0.00,CLR,,0.00,WeatherDisplay:10.37,2013-01-24 05:16:00,
2013-01-23 23:18:00,2.5,-2.5,30.36,NNE,23,6.3,12.7,79,0.00,CLR,,0.00,WeatherDisplay:10.37,2013-01-24 05:18:00,
2013-01-23 23:19:00,2.4,-2.6,30.36,North,360,5.9,9.4,79,0.00,CLR,,0.00,WeatherDisplay:10.37,2013-01-24 05:19:00,
2013-01-23 23:21:00,2.3,-2.7,30.36,NW,306,6.5,9.2,79,0.00,CLR,,0.00,WeatherDisplay:10.37,2013-01-24 05:21:00,
2013-01-23 23:22:00,2.3,-2.7,30.36,North,352,6.8,13.8,79,0.00,CLR,,0.00,WeatherDisplay:10.37,2013-01-24 05:22:00,
2013-01-23 23:23:00,2.2,-2.8,30.36,SE,128,4.5,11.5,79,0.00,CLR,,0.00,WeatherDisplay:10.37,2013-01-24 05:23:00,
2013-01-23 23:24:00,2.2,-2.8,30.36,NNW,328,5.8,8.1,79,0.00,CLR,,0.00,WeatherDisplay:10.37,2013-01-24 05:24:00,
2013-01-23 23:26:00,2.1,-2.9,30.36,NW,312,7.3,15.0,79,0.00,CLR,,0.00,WeatherDisplay:10.37,2013-01-24 05:26:00,
2013-01-23 23:27:00,2.1,-2.9,30.36,NNW,342,4.6,11.3,79,0.00,CLR,,0.00,WeatherDisplay:10.37,2013-01-24 05:27:00,
2013-01-23 23:29:00,2.0,-3.0,30.37,NNW,332,6.7,12.7,79,0.00,CLR,,0.00,WeatherDisplay:10.37,2013-01-24 05:29:00,
2013-01-23 23:31:00,1.9,-3.1,30.37,North,356,7.7,13.1,79,0.00,CLR,,0.00,WeatherDisplay:10.37,2013-01-24 05:31:00,
2013-01-23 23:32:00,1.8,-3.2,30.37,North,360,6.4,12.7,79,0.00,CLR,,0.00,WeatherDisplay:10.37,2013-01-24 05:32:00,
2013-01-23 23:34:00,1.8,-3.2,30.37,NNW,346,7.0,13.8,79,0.00,CLR,,0.00,WeatherDisplay:10.37,2013-01-24 05:34:00,
2013-01-23 23:36:00,1.7,-3.0,30.38,NNE,24,3.9,6.9,80,0.00,CLR,,0.00,WeatherDisplay:10.37,2013-01-24 05:36:00,
2013-01-23 23:37:00,1.7,-3.0,30.38,North,8,5.9,6.9,80,0.00,CLR,,0.00,WeatherDisplay:10.37,2013-01-24 05:37:00,
2013-01-23 23:39:00,1.6,-3.1,30.38,NW,319,6.3,10.4,80,0.00,CLR,,0.00,WeatherDisplay:10.37,2013-01-24 05:39:00,
2013-01-23 23:41:00,1.6,-3.1,30.38,NW,315,6.3,9.2,80,0.00,CLR,,0.00,WeatherDisplay:10.37,2013-01-24 05:41:00,
2013-01-23 23:42:00,1.5,-3.2,30.38,NW,316,5.7,9.2,80,0.00,CLR,,0.00,WeatherDisplay:10.37,2013-01-24 05:42:00,
2013-01-23 23:44:00,1.5,-3.2,30.38,WNW,298,6.9,10.4,80,0.00,CLR,,0.00,WeatherDisplay:10.37,2013-01-24 05:44:00,
2013-01-23 23:46:00,1.3,-3.4,30.39,North,352,6.4,11.5,80,0.00,CLR,,0.00,WeatherDisplay:10.37,2013-01-24 05:46:00,
2013-01-23 23:47:00,1.3,-3.4,30.39,NW,311,6.5,10.4,80,0.00,CLR,,0.00,WeatherDisplay:10.37,2013-01-24 05:47:00,
2013-01-23 23:49:00,1.3,-3.4,30.39,NW,313,5.4,12.7,80,0.00,CLR,,0.00,WeatherDisplay:10.37,2013-01-24 05:49:00,
2013-01-23 23:51:00,1.2,-3.5,30.39,NNW,328,6.7,10.4,80,0.00,CLR,,0.00,WeatherDisplay:10.37,2013-01-24 05:51:00,
2013-01-23 23:52:00,1.2,-3.5,30.39,NNE,30,4.0,9.2,80,0.00,CLR,,0.00,WeatherDisplay:10.37,2013-01-24 05:52:00,
2013-01-23 23:54:00,1.1,-3.6,30.39,West,268,8.1,12.7,80,0.00,CLR,,0.00,WeatherDisplay:10.37,2013-01-24 05:54:00,
2013-01-23 23:56:00,1.1,-3.6,30.39,NNE,17,6.1,11.5,80,0.00,CLR,,0.00,WeatherDisplay:10.37,2013-01-24 05:56:00,
2013-01-23 23:57:00,1.0,-3.7,30.39,NW,315,7.8,12.7,80,0.00,CLR,,0.00,WeatherDisplay:10.37,2013-01-24 05:57:00,
2013-01-23 23:59:00,0.9,-3.8,30.40,NE,38,7.7,11.3,80,0.00,CLR,,0.00,WeatherDisplay:10.37,2013-01-24 05:59:00,